Back to Top

Language: 

My Weather Underground Personal Weather Station Historical Data with Graphs...

Delerius Weather Station Historical Data
Daily Summary for January 9, 2018 Units:  Metric    English   Both
« Previous Day
Next Day »
Daily Weekly Monthly Yearly Custom
  High: Low: Average:
Temperature: 3.1 °C 1.6 °C 2.2 °C
Dew Point: 2.5 °C 1.1 °C 1.7 °C
Humidity: 97 % 96 % 96 %
Wind Speed: 17.7 km/h 0 km/h 8.2 km/h
Wind Gust: 24.1 km/h - -
Wind:- - SE
Pressure: 1016.1 hPa 1002.6 hPa -
Precipitation: 0.25 mm    
Historical Graphs
 
 
Tabular Data for January 9, 2018
Time Temperature Dew Point Pressure Wind Wind Speed Wind Gust Humidity Rainfall Rate (Hourly) solar Conditions
00:00 2.2 °C 1.8 °C 1016.1 hPa ESE 9.7 km/h 16.1 km/h 97 % 0 mm 0 W/m2
00:02 2.2 °C 1.8 °C 1016.1 hPa SE 3.2 km/h 9.7 km/h 97 % 0 mm 0 W/m2
00:03 2.2 °C 1.8 °C 1016.1 hPa SE 3.2 km/h 6.4 km/h 97 % 0 mm 0 W/m2
00:04 2.2 °C 1.8 °C 1016.1 hPa SE 4.8 km/h 8 km/h 97 % 0 mm 0 W/m2
00:05 2.2 °C 1.8 °C 1016.1 hPa ESE 6.4 km/h 11.3 km/h 97 % 0 mm 0 W/m2
00:08 2.2 °C 1.8 °C 1016.1 hPa ESE 8 km/h 11.3 km/h 97 % 0 mm 0 W/m2
00:12 2.2 °C 1.8 °C 1015.8 hPa ESE 9.7 km/h 17.7 km/h 97 % 0 mm 0 W/m2
00:13 2.2 °C 1.8 °C 1015.8 hPa ESE 8 km/h 17.7 km/h 97 % 0 mm 0 W/m2
00:16 2.2 °C 1.8 °C 1015.8 hPa ESE 9.7 km/h 14.5 km/h 97 % 0 mm 0 W/m2
00:17 2.2 °C 1.8 °C 1015.8 hPa ESE 9.7 km/h 14.5 km/h 97 % 0 mm 0 W/m2
00:18 2.2 °C 1.8 °C 1015.8 hPa ESE 9.7 km/h 14.5 km/h 97 % 0 mm 0 W/m2
00:19 2.2 °C 1.6 °C 1015.8 hPa East 9.7 km/h 14.5 km/h 96 % 0 mm 0 W/m2
00:21 2.2 °C 1.6 °C 1015.8 hPa ESE 11.3 km/h 16.1 km/h 96 % 0 mm 0 W/m2
00:23 2.2 °C 1.6 °C 1015.8 hPa ESE 9.7 km/h 12.9 km/h 96 % 0 mm 0 W/m2
00:26 2.2 °C 1.6 °C 1015.8 hPa SE 6.4 km/h 11.3 km/h 96 % 0 mm 0 W/m2
00:28 2.2 °C 1.6 °C 1015.8 hPa ESE 9.7 km/h 14.5 km/h 96 % 0 mm 0 W/m2
00:29 2.2 °C 1.6 °C 1015.8 hPa ESE 8 km/h 14.5 km/h 96 % 0 mm 0 W/m2
00:33 2.2 °C 1.6 °C 1015.8 hPa ESE 8 km/h 12.9 km/h 96 % 0 mm 0 W/m2
00:34 2.2 °C 1.6 °C 1015.8 hPa ESE 8 km/h 11.3 km/h 96 % 0 mm 0 W/m2
00:36 2.2 °C 1.6 °C 1015.5 hPa ESE 8 km/h 12.9 km/h 96 % 0 mm 0 W/m2
00:37 2.2 °C 1.6 °C 1015.5 hPa ESE 9.7 km/h 12.9 km/h 96 % 0 mm 0 W/m2
00:41 2.2 °C 1.6 °C 1015.5 hPa ESE 8 km/h 14.5 km/h 96 % 0 mm 0 W/m2
00:42 2.2 °C 1.6 °C 1015.5 hPa ESE 8 km/h 14.5 km/h 96 % 0 mm 0 W/m2
00:46 2.1 °C 1.6 °C 1015.5 hPa ESE 12.9 km/h 17.7 km/h 96 % 0 mm 0 W/m2
00:49 2.1 °C 1.6 °C 1015.5 hPa SE 6.4 km/h 12.9 km/h 96 % 0 mm 0 W/m2
00:54 2.1 °C 1.6 °C 1015.5 hPa SE 4.8 km/h 9.7 km/h 96 % 0 mm 0 W/m2
00:55 2.1 °C 1.6 °C 1015.5 hPa SE 4.8 km/h 9.7 km/h 96 % 0 mm 0 W/m2
00:56 2.1 °C 1.6 °C 1015.5 hPa SE 8 km/h 11.3 km/h 96 % 0 mm 0 W/m2
00:58 2.1 °C 1.6 °C 1015.5 hPa ESE 11.3 km/h 19.3 km/h 96 % 0 mm 0 W/m2
00:59 2.1 °C 1.6 °C 1015.1 hPa ESE 11.3 km/h 19.3 km/h 96 % 0 mm 0 W/m2
01:00 2.1 °C 1.6 °C 1015.1 hPa SE 12.9 km/h 19.3 km/h 96 % 0 mm 0 W/m2
01:01 2.1 °C 1.6 °C 1015.1 hPa SE 11.3 km/h 17.7 km/h 96 % 0 mm 0 W/m2
01:02 2.1 °C 1.6 °C 1015.1 hPa SE 9.7 km/h 14.5 km/h 96 % 0 mm 0 W/m2
01:03 2.1 °C 1.6 °C 1015.5 hPa SE 9.7 km/h 14.5 km/h 96 % 0 mm 0 W/m2
01:04 2.1 °C 1.6 °C 1015.1 hPa SE 9.7 km/h 14.5 km/h 96 % 0 mm 0 W/m2
01:05 2.1 °C 1.6 °C 1015.1 hPa SE 9.7 km/h 14.5 km/h 96 % 0 mm 0 W/m2
01:06 2.1 °C 1.6 °C 1015.1 hPa SE 11.3 km/h 16.1 km/h 96 % 0 mm 0 W/m2
01:07 2.1 °C 1.6 °C 1015.1 hPa SE 11.3 km/h 16.1 km/h 96 % 0 mm 0 W/m2
01:08 2.1 °C 1.6 °C 1015.1 hPa SE 9.7 km/h 14.5 km/h 96 % 0 mm 0 W/m2
01:09 2.1 °C 1.6 °C 1015.1 hPa SE 8 km/h 12.9 km/h 96 % 0 mm 0 W/m2
01:10 2.1 °C 1.6 °C 1015.1 hPa SE 6.4 km/h 12.9 km/h 96 % 0 mm 0 W/m2
01:11 2.1 °C 1.6 °C 1015.1 hPa ESE 6.4 km/h 9.7 km/h 96 % 0 mm 0 W/m2
01:13 2.1 °C 1.6 °C 1015.1 hPa ESE 9.7 km/h 12.9 km/h 96 % 0 mm 0 W/m2
01:14 2.1 °C 1.6 °C 1015.1 hPa ESE 9.7 km/h 12.9 km/h 96 % 0 mm 0 W/m2
01:16 2.1 °C 1.6 °C 1015.1 hPa ESE 9.7 km/h 12.9 km/h 96 % 0 mm 0 W/m2
01:17 2.1 °C 1.6 °C 1015.1 hPa ESE 8 km/h 12.9 km/h 96 % 0 mm 0 W/m2
01:19 2.1 °C 1.6 °C 1015.1 hPa SE 6.4 km/h 9.7 km/h 96 % 0 mm 0 W/m2
01:20 2.1 °C 1.6 °C 1015.1 hPa SE 4.8 km/h 12.9 km/h 96 % 0 mm 0 W/m2
01:21 2.1 °C 1.6 °C 1015.1 hPa ESE 6.4 km/h 12.9 km/h 96 % 0 mm 0 W/m2
01:22 2.1 °C 1.6 °C 1015.1 hPa SE 9.7 km/h 19.3 km/h 96 % 0 mm 0 W/m2
01:27 2 °C 1.6 °C 1015.1 hPa SE 9.7 km/h 14.5 km/h 97 % 0 mm 0 W/m2
01:29 2 °C 1.6 °C 1014.8 hPa SE 8 km/h 14.5 km/h 97 % 0 mm 0 W/m2
01:33 2 °C 1.6 °C 1014.8 hPa ESE 9.7 km/h 16.1 km/h 97 % 0 mm 0 W/m2
01:35 2 °C 1.6 °C 1014.8 hPa ESE 6.4 km/h 11.3 km/h 97 % 0 mm 0 W/m2
01:37 2 °C 1.6 °C 1014.8 hPa SE 8 km/h 14.5 km/h 97 % 0 mm 0 W/m2
01:42 2 °C 1.6 °C 1014.8 hPa ESE 9.7 km/h 14.5 km/h 97 % 0 mm 0 W/m2
01:43 2 °C 1.6 °C 1014.8 hPa ESE 8 km/h 12.9 km/h 97 % 0 mm 0 W/m2
01:44 2 °C 1.6 °C 1014.8 hPa SE 11.3 km/h 20.9 km/h 97 % 0 mm 0 W/m2
01:45 2 °C 1.6 °C 1014.8 hPa ESE 11.3 km/h 20.9 km/h 97 % 0 mm 0 W/m2
01:46 1.9 °C 1.5 °C 1014.8 hPa ESE 11.3 km/h 20.9 km/h 97 % 0 mm 0 W/m2
01:47 1.9 °C 1.5 °C 1014.8 hPa ESE 8 km/h 14.5 km/h 97 % 0 mm 0 W/m2
01:49 1.9 °C 1.5 °C 1014.8 hPa SE 11.3 km/h 14.5 km/h 97 % 0 mm 0 W/m2
01:50 1.9 °C 1.5 °C 1014.8 hPa SE 11.3 km/h 16.1 km/h 97 % 0 mm 0 W/m2
01:51 1.9 °C 1.5 °C 1014.4 hPa SE 11.3 km/h 16.1 km/h 97 % 0 mm 0 W/m2
01:52 1.9 °C 1.5 °C 1014.4 hPa SE 11.3 km/h 17.7 km/h 97 % 0 mm 0 W/m2
01:55 1.9 °C 1.5 °C 1014.4 hPa SE 12.9 km/h 20.9 km/h 97 % 0.25 mm 0 W/m2
02:07 1.8 °C 1.2 °C 1014.1 hPa ESE 11.3 km/h 14.5 km/h 96 % 0.25 mm 0 W/m2
02:08 1.8 °C 1.2 °C 1014.1 hPa SE 11.3 km/h 16.1 km/h 96 % 0.25 mm 0 W/m2
02:10 1.8 °C 1.2 °C 1014.1 hPa ESE 11.3 km/h 17.7 km/h 96 % 0.25 mm 0 W/m2
02:11 1.7 °C 1.1 °C 1014.1 hPa ESE 12.9 km/h 19.3 km/h 96 % 0.25 mm 0 W/m2
02:16 1.7 °C 1.1 °C 1014.1 hPa SE 14.5 km/h 20.9 km/h 96 % 0.25 mm 0 W/m2
02:19 1.7 °C 1.1 °C 1014.1 hPa SSE 12.9 km/h 22.5 km/h 96 % 0.25 mm 0 W/m2
02:21 1.7 °C 1.3 °C 1014.1 hPa SE 11.3 km/h 16.1 km/h 97 % 0.25 mm 0 W/m2
02:22 1.7 °C 1.3 °C 1014.1 hPa SE 11.3 km/h 14.5 km/h 97 % 0.25 mm 0 W/m2
02:24 1.7 °C 1.3 °C 1014.1 hPa SE 11.3 km/h 16.1 km/h 97 % 0.25 mm 0 W/m2
02:26 1.7 °C 1.3 °C 1014.1 hPa SE 11.3 km/h 16.1 km/h 97 % 0.25 mm 0 W/m2
02:27 1.7 °C 1.3 °C 1013.8 hPa SE 11.3 km/h 16.1 km/h 97 % 0.25 mm 0 W/m2
02:28 1.7 °C 1.3 °C 1013.8 hPa SE 9.7 km/h 16.1 km/h 97 % 0.25 mm 0 W/m2
02:29 1.7 °C 1.3 °C 1013.8 hPa SE 9.7 km/h 14.5 km/h 97 % 0.25 mm 0 W/m2
02:30 1.6 °C 1.2 °C 1013.8 hPa SE 9.7 km/h 14.5 km/h 97 % 0.25 mm 0 W/m2
02:31 1.6 °C 1.2 °C 1013.8 hPa SE 9.7 km/h 14.5 km/h 97 % 0.25 mm 0 W/m2
02:32 1.7 °C 1.3 °C 1013.8 hPa SSE 6.4 km/h 14.5 km/h 97 % 0.25 mm 0 W/m2
02:33 1.6 °C 1.2 °C 1013.8 hPa SSE 6.4 km/h 14.5 km/h 97 % 0.25 mm 0 W/m2
02:34 1.6 °C 1.2 °C 1013.8 hPa SSE 6.4 km/h 16.1 km/h 97 % 0.25 mm 0 W/m2
02:35 1.6 °C 1.2 °C 1013.8 hPa SSE 8 km/h 16.1 km/h 97 % 0.25 mm 0 W/m2
02:36 1.7 °C 1.3 °C 1013.8 hPa SE 9.7 km/h 16.1 km/h 97 % 0.25 mm 0 W/m2
02:37 1.6 °C 1.2 °C 1013.8 hPa SE 11.3 km/h 16.1 km/h 97 % 0.25 mm 0 W/m2
02:38 1.6 °C 1.2 °C 1013.8 hPa SE 12.9 km/h 16.1 km/h 97 % 0.25 mm 0 W/m2
02:39 1.6 °C 1.2 °C 1013.8 hPa SE 12.9 km/h 17.7 km/h 97 % 0.25 mm 0 W/m2
02:40 1.6 °C 1.2 °C 1013.8 hPa SE 12.9 km/h 17.7 km/h 97 % 0.25 mm 0 W/m2
02:41 1.6 °C 1.2 °C 1013.8 hPa SE 12.9 km/h 17.7 km/h 97 % 0.25 mm 0 W/m2
02:42 1.6 °C 1.2 °C 1013.8 hPa SE 11.3 km/h 19.3 km/h 97 % 0.25 mm 0 W/m2
02:43 1.6 °C 1.2 °C 1013.8 hPa SE 12.9 km/h 24.1 km/h 97 % 0.25 mm 0 W/m2
02:44 1.6 °C 1.2 °C 1013.8 hPa SE 14.5 km/h 24.1 km/h 97 % 0.25 mm 0 W/m2
02:45 1.6 °C 1.2 °C 1013.8 hPa SSE 12.9 km/h 20.9 km/h 97 % 0.25 mm 0 W/m2
02:46 1.6 °C 1.2 °C 1013.8 hPa SE 11.3 km/h 17.7 km/h 97 % 0.25 mm 0 W/m2
02:48 1.6 °C 1.2 °C 1013.4 hPa ESE 9.7 km/h 16.1 km/h 97 % 0.25 mm 0 W/m2
02:49 1.6 °C 1.2 °C 1013.4 hPa ESE 11.3 km/h 16.1 km/h 97 % 0.25 mm 0 W/m2
02:53 1.6 °C 1.2 °C 1013.4 hPa ESE 9.7 km/h 16.1 km/h 97 % 0 mm 0 W/m2
02:56 1.6 °C 1.2 °C 1013.4 hPa ESE 9.7 km/h 16.1 km/h 97 % 0 mm 0 W/m2
02:57 1.6 °C 1.2 °C 1013.4 hPa ESE 9.7 km/h 14.5 km/h 97 % 0 mm 0 W/m2
02:58 1.6 °C 1.2 °C 1013.4 hPa ESE 11.3 km/h 17.7 km/h 97 % 0 mm 0 W/m2
02:59 1.6 °C 1.2 °C 1013.4 hPa ESE 11.3 km/h 17.7 km/h 97 % 0 mm 0 W/m2
03:00 1.6 °C 1.2 °C 1013.4 hPa ESE 11.3 km/h 17.7 km/h 97 % 0 mm 0 W/m2
03:01 1.6 °C 1.2 °C 1013.1 hPa ESE 11.3 km/h 14.5 km/h 97 % 0 mm 0 W/m2
03:02 1.6 °C 1.2 °C 1013.1 hPa SE 11.3 km/h 14.5 km/h 97 % 0 mm 0 W/m2
03:03 1.6 °C 1.2 °C 1013.1 hPa SE 11.3 km/h 14.5 km/h 97 % 0 mm 0 W/m2
03:04 1.6 °C 1.2 °C 1013.4 hPa SE 11.3 km/h 16.1 km/h 97 % 0 mm 0 W/m2
03:05 1.6 °C 1.2 °C 1013.4 hPa SE 9.7 km/h 16.1 km/h 97 % 0 mm 0 W/m2
03:06 1.6 °C 1.2 °C 1013.4 hPa SE 4.8 km/h 12.9 km/h 97 % 0 mm 0 W/m2
03:08 1.6 °C 1.2 °C 1013.4 hPa ESE 6.4 km/h 11.3 km/h 97 % 0 mm 0 W/m2
03:09 1.6 °C 1.2 °C 1013.4 hPa ESE 6.4 km/h 11.3 km/h 97 % 0 mm 0 W/m2
03:10 1.6 °C 1.2 °C 1013.4 hPa ESE 4.8 km/h 11.3 km/h 97 % 0 mm 0 W/m2
03:11 1.6 °C 1.2 °C 1013.1 hPa SE 3.2 km/h 11.3 km/h 97 % 0 mm 0 W/m2
03:12 1.6 °C 1.2 °C 1013.1 hPa SE 3.2 km/h 9.7 km/h 97 % 0 mm 0 W/m2
03:13 1.6 °C 1.2 °C 1013.1 hPa SE 3.2 km/h 9.7 km/h 97 % 0 mm 0 W/m2
03:14 1.6 °C 1.2 °C 1013.1 hPa SE 3.2 km/h 9.7 km/h 97 % 0 mm 0 W/m2
03:15 1.6 °C 1.2 °C 1013.1 hPa SE 3.2 km/h 9.7 km/h 97 % 0 mm 0 W/m2
03:16 1.6 °C 1.2 °C 1013.1 hPa SE 4.8 km/h 9.7 km/h 97 % 0 mm 0 W/m2
03:18 1.6 °C 1.1 °C 1013.1 hPa ESE 6.4 km/h 11.3 km/h 96 % 0 mm 0 W/m2
03:19 1.6 °C 1.2 °C 1013.1 hPa SE 6.4 km/h 12.9 km/h 97 % 0 mm 0 W/m2
03:20 1.6 °C 1.2 °C 1013.1 hPa SE 8 km/h 12.9 km/h 97 % 0 mm 0 W/m2
03:21 1.6 °C 1.2 °C 1013.1 hPa SE 8 km/h 12.9 km/h 97 % 0 mm 0 W/m2
03:22 1.6 °C 1.1 °C 1013.1 hPa SE 9.7 km/h 12.9 km/h 96 % 0 mm 0 W/m2
03:23 1.6 °C 1.1 °C 1013.1 hPa SE 8 km/h 12.9 km/h 96 % 0 mm 0 W/m2
03:24 1.6 °C 1.1 °C 1013.1 hPa SE 8 km/h 12.9 km/h 96 % 0 mm 0 W/m2
03:25 1.6 °C 1.2 °C 1013.1 hPa SE 6.4 km/h 9.7 km/h 97 % 0 mm 0 W/m2
03:26 1.6 °C 1.2 °C 1013.1 hPa ESE 8 km/h 14.5 km/h 97 % 0 mm 0 W/m2
03:27 1.6 °C 1.2 °C 1013.1 hPa ESE 8 km/h 14.5 km/h 97 % 0 mm 0 W/m2
03:29 1.6 °C 1.2 °C 1013.1 hPa ESE 8 km/h 14.5 km/h 97 % 0 mm 0 W/m2
03:30 1.6 °C 1.2 °C 1013.1 hPa ESE 8 km/h 11.3 km/h 97 % 0 mm 0 W/m2
03:33 1.6 °C 1.2 °C 1013.1 hPa SE 8 km/h 11.3 km/h 97 % 0 mm 0 W/m2
03:35 1.6 °C 1.2 °C 1013.1 hPa ESE 4.8 km/h 11.3 km/h 97 % 0 mm 0 W/m2
03:38 1.6 °C 1.2 °C 1013.1 hPa ESE 4.8 km/h 12.9 km/h 97 % 0 mm 0 W/m2
03:39 1.6 °C 1.2 °C 1013.1 hPa ESE 6.4 km/h 11.3 km/h 97 % 0 mm 0 W/m2
03:40 1.6 °C 1.2 °C 1013.1 hPa ESE 6.4 km/h 11.3 km/h 97 % 0 mm 0 W/m2
03:41 1.6 °C 1.2 °C 1013.1 hPa ESE 8 km/h 11.3 km/h 97 % 0 mm 0 W/m2
03:42 1.6 °C 1.2 °C 1013.1 hPa ESE 8 km/h 12.9 km/h 97 % 0 mm 0 W/m2
03:44 1.6 °C 1.1 °C 1013.1 hPa SE 8 km/h 14.5 km/h 96 % 0 mm 0 W/m2
03:45 1.6 °C 1.1 °C 1013.1 hPa SE 8 km/h 14.5 km/h 96 % 0 mm 0 W/m2
03:46 1.6 °C 1.2 °C 1012.8 hPa SE 8 km/h 14.5 km/h 97 % 0 mm 0 W/m2
03:47 1.6 °C 1.1 °C 1012.8 hPa SE 8 km/h 14.5 km/h 96 % 0 mm 0 W/m2
03:49 1.6 °C 1.2 °C 1012.8 hPa ESE 11.3 km/h 17.7 km/h 97 % 0 mm 0 W/m2
03:50 1.6 °C 1.1 °C 1012.8 hPa SE 12.9 km/h 17.7 km/h 96 % 0 mm 0 W/m2
03:51 1.6 °C 1.1 °C 1012.8 hPa SE 12.9 km/h 17.7 km/h 96 % 0 mm 0 W/m2
03:52 1.6 °C 1.1 °C 1012.8 hPa SE 11.3 km/h 16.1 km/h 96 % 0 mm 0 W/m2
03:53 1.6 °C 1.2 °C 1012.4 hPa SE 9.7 km/h 12.9 km/h 97 % 0 mm 0 W/m2
03:55 1.6 °C 1.2 °C 1012.4 hPa SE 8 km/h 16.1 km/h 97 % 0 mm 0 W/m2
03:56 1.6 °C 1.1 °C 1012.4 hPa ESE 9.7 km/h 16.1 km/h 96 % 0 mm 0 W/m2
04:00 1.6 °C 1.2 °C 1012.4 hPa ESE 4.8 km/h 11.3 km/h 97 % 0 mm 0 W/m2
04:01 1.6 °C 1.2 °C 1012.4 hPa ESE 4.8 km/h 11.3 km/h 97 % 0 mm 0 W/m2
04:03 1.6 °C 1.2 °C 1012.4 hPa SE 4.8 km/h 9.7 km/h 97 % 0 mm 0 W/m2
04:06 1.6 °C 1.1 °C 1012.4 hPa SE 3.2 km/h 8 km/h 96 % 0 mm 0 W/m2
04:07 1.6 °C 1.2 °C 1012.4 hPa SE 3.2 km/h 8 km/h 97 % 0 mm 0 W/m2
04:08 1.6 °C 1.2 °C 1012.4 hPa SE 3.2 km/h 8 km/h 97 % 0 mm 0 W/m2
04:09 1.6 °C 1.2 °C 1012.4 hPa SE 4.8 km/h 8 km/h 97 % 0 mm 0 W/m2
04:10 1.6 °C 1.1 °C 1012.4 hPa ESE 3.2 km/h 9.7 km/h 96 % 0 mm 0 W/m2
04:11 1.6 °C 1.2 °C 1012.4 hPa ESE 3.2 km/h 9.7 km/h 97 % 0 mm 0 W/m2
04:12 1.6 °C 1.2 °C 1012.4 hPa SE 3.2 km/h 6.4 km/h 97 % 0 mm 0 W/m2
04:13 1.6 °C 1.2 °C 1012.4 hPa SE 6.4 km/h 9.7 km/h 97 % 0 mm 0 W/m2
04:14 1.6 °C 1.2 °C 1012.4 hPa SE 6.4 km/h 9.7 km/h 97 % 0 mm 0 W/m2
04:16 1.6 °C 1.1 °C 1012.4 hPa ESE 6.4 km/h 11.3 km/h 96 % 0 mm 0 W/m2
04:17 1.6 °C 1.1 °C 1012.4 hPa ESE 8 km/h 11.3 km/h 96 % 0 mm 0 W/m2
04:18 1.6 °C 1.1 °C 1012.4 hPa ESE 6.4 km/h 9.7 km/h 96 % 0 mm 0 W/m2
04:19 1.6 °C 1.1 °C 1012.1 hPa ESE 6.4 km/h 9.7 km/h 96 % 0 mm 0 W/m2
04:20 1.6 °C 1.2 °C 1012.1 hPa ESE 6.4 km/h 9.7 km/h 97 % 0 mm 0 W/m2
04:21 1.6 °C 1.2 °C 1012.4 hPa ESE 6.4 km/h 11.3 km/h 97 % 0 mm 0 W/m2
04:22 1.6 °C 1.1 °C 1012.4 hPa ESE 8 km/h 11.3 km/h 96 % 0 mm 0 W/m2
04:23 1.6 °C 1.2 °C 1012.1 hPa ESE 8 km/h 11.3 km/h 97 % 0 mm 0 W/m2
04:25 1.6 °C 1.1 °C 1012.1 hPa ESE 6.4 km/h 11.3 km/h 96 % 0 mm 0 W/m2
04:29 1.6 °C 1.1 °C 1012.4 hPa SE 8 km/h 12.9 km/h 96 % 0 mm 0 W/m2
04:30 1.6 °C 1.1 °C 1012.4 hPa SE 8 km/h 12.9 km/h 96 % 0 mm 0 W/m2
04:36 1.6 °C 1.2 °C 1012.1 hPa SE 9.7 km/h 14.5 km/h 97 % 0 mm 0 W/m2
04:41 1.6 °C 1.2 °C 1012.1 hPa ESE 8 km/h 11.3 km/h 97 % 0 mm 0 W/m2
04:42 1.6 °C 1.2 °C 1012.1 hPa ESE 8 km/h 12.9 km/h 97 % 0 mm 0 W/m2
04:43 1.6 °C 1.2 °C 1012.1 hPa ESE 9.7 km/h 14.5 km/h 97 % 0 mm 0 W/m2
04:45 1.6 °C 1.2 °C 1011.7 hPa SE 9.7 km/h 14.5 km/h 97 % 0 mm 0 W/m2
04:46 1.6 °C 1.2 °C 1011.7 hPa SE 6.4 km/h 11.3 km/h 97 % 0 mm 0 W/m2
04:48 1.7 °C 1.3 °C 1011.7 hPa ESE 6.4 km/h 11.3 km/h 97 % 0 mm 0 W/m2
04:50 1.6 °C 1.2 °C 1011.7 hPa ESE 6.4 km/h 12.9 km/h 97 % 0 mm 0 W/m2
04:51 1.6 °C 1.2 °C 1011.7 hPa ESE 6.4 km/h 12.9 km/h 97 % 0 mm 0 W/m2
04:52 1.6 °C 1.2 °C 1011.7 hPa ESE 9.7 km/h 14.5 km/h 97 % 0 mm 0 W/m2
04:53 1.7 °C 1.3 °C 1011.7 hPa SE 9.7 km/h 14.5 km/h 97 % 0 mm 0 W/m2
04:54 1.7 °C 1.3 °C 1011.7 hPa SE 8 km/h 12.9 km/h 97 % 0 mm 0 W/m2
04:59 1.7 °C 1.3 °C 1011.4 hPa ESE 8 km/h 12.9 km/h 97 % 0 mm 0 W/m2
05:00 1.7 °C 1.3 °C 1011.4 hPa ESE 6.4 km/h 9.7 km/h 97 % 0 mm 0 W/m2
05:01 1.7 °C 1.3 °C 1011.7 hPa ESE 4.8 km/h 9.7 km/h 97 % 0 mm 0 W/m2
05:02 1.7 °C 1.3 °C 1011.7 hPa ESE 4.8 km/h 11.3 km/h 97 % 0 mm 0 W/m2
05:05 1.7 °C 1.3 °C 1011.4 hPa SE 8 km/h 12.9 km/h 97 % 0 mm 0 W/m2
05:07 1.7 °C 1.3 °C 1011.4 hPa SE 9.7 km/h 16.1 km/h 97 % 0 mm 0 W/m2
05:08 1.7 °C 1.3 °C 1011.4 hPa SE 9.7 km/h 16.1 km/h 97 % 0 mm 0 W/m2
05:09 1.7 °C 1.3 °C 1011.4 hPa SE 9.7 km/h 16.1 km/h 97 % 0 mm 0 W/m2
05:10 1.7 °C 1.3 °C 1011.4 hPa SE 9.7 km/h 16.1 km/h 97 % 0 mm 0 W/m2
05:11 1.7 °C 1.3 °C 1011.4 hPa SE 8 km/h 14.5 km/h 97 % 0 mm 0 W/m2
05:12 1.7 °C 1.3 °C 1011.4 hPa SE 8 km/h 14.5 km/h 97 % 0 mm 0 W/m2
05:14 1.7 °C 1.3 °C 1011.4 hPa SE 6.4 km/h 9.7 km/h 97 % 0 mm 0 W/m2
05:15 1.7 °C 1.3 °C 1011.4 hPa SE 6.4 km/h 9.7 km/h 97 % 0 mm 0 W/m2
05:16 1.7 °C 1.3 °C 1011.4 hPa SE 6.4 km/h 11.3 km/h 97 % 0 mm 0 W/m2
05:17 1.7 °C 1.3 °C 1011.4 hPa SE 8 km/h 11.3 km/h 97 % 0 mm 0 W/m2
05:18 1.7 °C 1.3 °C 1011.4 hPa ESE 8 km/h 11.3 km/h 97 % 0 mm 0 W/m2
05:20 1.7 °C 1.3 °C 1011.4 hPa ESE 8 km/h 12.9 km/h 97 % 0 mm 0 W/m2
05:21 1.7 °C 1.3 °C 1011.4 hPa ESE 9.7 km/h 16.1 km/h 97 % 0 mm 0 W/m2
05:22 1.7 °C 1.3 °C 1011.4 hPa ESE 11.3 km/h 16.1 km/h 97 % 0 mm 0 W/m2
05:23 1.7 °C 1.3 °C 1011.4 hPa SE 11.3 km/h 16.1 km/h 97 % 0 mm 0 W/m2
05:26 1.7 °C 1.3 °C 1011.1 hPa ESE 8 km/h 14.5 km/h 97 % 0 mm 0 W/m2
05:27 1.7 °C 1.3 °C 1011.1 hPa ESE 8 km/h 14.5 km/h 97 % 0 mm 0 W/m2
05:28 1.7 °C 1.3 °C 1011.1 hPa ESE 6.4 km/h 16.1 km/h 97 % 0 mm 0 W/m2
05:30 1.7 °C 1.3 °C 1011.1 hPa ESE 6.4 km/h 16.1 km/h 97 % 0 mm 0 W/m2
05:31 1.7 °C 1.3 °C 1011.1 hPa ESE 6.4 km/h 16.1 km/h 97 % 0 mm 0 W/m2
05:32 1.7 °C 1.3 °C 1011.1 hPa ESE 8 km/h 12.9 km/h 97 % 0 mm 0 W/m2
05:34 1.7 °C 1.3 °C 1011.1 hPa ESE 6.4 km/h 11.3 km/h 97 % 0 mm 0 W/m2
05:35 1.7 °C 1.1 °C 1011.1 hPa ESE 4.8 km/h 9.7 km/h 96 % 0 mm 0 W/m2
05:36 1.7 °C 1.1 °C 1011.1 hPa ESE 4.8 km/h 9.7 km/h 96 % 0 mm 0 W/m2
05:37 1.7 °C 1.1 °C 1011.1 hPa ESE 4.8 km/h 11.3 km/h 96 % 0 mm 0 W/m2
05:38 1.7 °C 1.1 °C 1011.1 hPa ESE 6.4 km/h 12.9 km/h 96 % 0 mm 0 W/m2
05:39 1.7 °C 1.1 °C 1011.1 hPa ESE 8 km/h 12.9 km/h 96 % 0 mm 0 W/m2
05:40 1.7 °C 1.3 °C 1011.1 hPa ESE 9.7 km/h 14.5 km/h 97 % 0 mm 0 W/m2
05:41 1.7 °C 1.3 °C 1011.1 hPa ESE 9.7 km/h 14.5 km/h 97 % 0 mm 0 W/m2
05:43 1.7 °C 1.3 °C 1011.1 hPa ESE 6.4 km/h 12.9 km/h 97 % 0 mm 0 W/m2
05:44 1.7 °C 1.1 °C 1011.1 hPa ESE 6.4 km/h 9.7 km/h 96 % 0 mm 0 W/m2
05:46 1.7 °C 1.1 °C 1011.1 hPa SE 6.4 km/h 12.9 km/h 96 % 0 mm 0 W/m2
05:47 1.7 °C 1.3 °C 1011.1 hPa SE 8 km/h 12.9 km/h 97 % 0 mm 0 W/m2
05:48 1.7 °C 1.1 °C 1010.7 hPa SE 6.4 km/h 11.3 km/h 96 % 0 mm 0 W/m2
05:49 1.7 °C 1.1 °C 1010.7 hPa ESE 4.8 km/h 11.3 km/h 96 % 0 mm 0 W/m2
05:50 1.7 °C 1.1 °C 1010.7 hPa ESE 4.8 km/h 11.3 km/h 96 % 0 mm 0 W/m2
05:52 1.7 °C 1.3 °C 1010.7 hPa ESE 6.4 km/h 12.9 km/h 97 % 0 mm 0 W/m2
05:53 1.7 °C 1.1 °C 1010.7 hPa ESE 6.4 km/h 12.9 km/h 96 % 0 mm 0 W/m2
05:54 1.7 °C 1.3 °C 1010.7 hPa ESE 8 km/h 12.9 km/h 97 % 0 mm 0 W/m2
05:56 1.7 °C 1.1 °C 1010.7 hPa ESE 4.8 km/h 9.7 km/h 96 % 0 mm 0 W/m2
05:57 1.7 °C 1.3 °C 1010.7 hPa ESE 4.8 km/h 8 km/h 97 % 0 mm 0 W/m2
05:58 1.7 °C 1.3 °C 1010.4 hPa ESE 4.8 km/h 8 km/h 97 % 0 mm 0 W/m2
05:59 1.7 °C 1.3 °C 1010.4 hPa ESE 4.8 km/h 9.7 km/h 97 % 0 mm 0 W/m2
06:01 1.7 °C 1.3 °C 1010.4 hPa ESE 6.4 km/h 11.3 km/h 97 % 0 mm 0 W/m2
06:02 1.7 °C 1.3 °C 1010.4 hPa ESE 8 km/h 12.9 km/h 97 % 0 mm 0 W/m2
06:03 1.7 °C 1.3 °C 1010.4 hPa ESE 8 km/h 12.9 km/h 97 % 0 mm 0 W/m2
06:04 1.7 °C 1.3 °C 1010.4 hPa SE 8 km/h 14.5 km/h 97 % 0 mm 0 W/m2
06:06 1.7 °C 1.3 °C 1010.4 hPa SE 8 km/h 16.1 km/h 97 % 0 mm 0 W/m2
06:08 1.7 °C 1.3 °C 1010.4 hPa SE 9.7 km/h 14.5 km/h 97 % 0 mm 0 W/m2
06:11 1.7 °C 1.1 °C 1010.4 hPa SE 11.3 km/h 16.1 km/h 96 % 0 mm 0 W/m2
06:12 1.7 °C 1.3 °C 1010.4 hPa SE 9.7 km/h 16.1 km/h 97 % 0 mm 0 W/m2
06:13 1.7 °C 1.1 °C 1010.4 hPa SE 8 km/h 12.9 km/h 96 % 0 mm 0 W/m2
06:14 1.7 °C 1.1 °C 1010.4 hPa SE 6.4 km/h 11.3 km/h 96 % 0 mm 0 W/m2
06:16 1.7 °C 1.3 °C 1010.4 hPa ESE 6.4 km/h 12.9 km/h 97 % 0 mm 0 W/m2
06:17 1.7 °C 1.3 °C 1010.4 hPa SE 6.4 km/h 12.9 km/h 97 % 0 mm 0 W/m2
06:18 1.7 °C 1.1 °C 1010.4 hPa SE 8 km/h 12.9 km/h 96 % 0 mm 0 W/m2
06:19 1.7 °C 1.1 °C 1010.4 hPa SE 8 km/h 12.9 km/h 96 % 0 mm 0 W/m2
06:20 1.7 °C 1.3 °C 1010.7 hPa SE 9.7 km/h 14.5 km/h 97 % 0 mm 0 W/m2
06:21 1.7 °C 1.3 °C 1010.7 hPa ESE 9.7 km/h 16.1 km/h 97 % 0 mm 0 W/m2
06:23 1.7 °C 1.3 °C 1010.7 hPa ESE 9.7 km/h 16.1 km/h 97 % 0 mm 0 W/m2
06:26 1.7 °C 1.3 °C 1010.7 hPa SE 6.4 km/h 16.1 km/h 97 % 0 mm 0 W/m2
06:27 1.7 °C 1.1 °C 1010.7 hPa SE 8 km/h 16.1 km/h 96 % 0 mm 0 W/m2
06:29 1.7 °C 1.1 °C 1010.4 hPa ESE 12.9 km/h 19.3 km/h 96 % 0 mm 0 W/m2
06:30 1.7 °C 1.1 °C 1010.4 hPa ESE 12.9 km/h 19.3 km/h 96 % 0 mm 0 W/m2
06:32 1.7 °C 1.1 °C 1010.4 hPa ESE 12.9 km/h 17.7 km/h 96 % 0 mm 0 W/m2
06:33 1.7 °C 1.1 °C 1010.4 hPa ESE 12.9 km/h 17.7 km/h 96 % 0 mm 0 W/m2
06:36 1.7 °C 1.1 °C 1010.4 hPa SE 9.7 km/h 17.7 km/h 96 % 0 mm 0 W/m2
06:37 1.7 °C 1.1 °C 1010.4 hPa SE 11.3 km/h 19.3 km/h 96 % 0 mm 0 W/m2
06:38 1.7 °C 1.1 °C 1010.4 hPa SE 11.3 km/h 19.3 km/h 96 % 0 mm 0 W/m2
06:39 1.7 °C 1.1 °C 1010.4 hPa ESE 11.3 km/h 19.3 km/h 96 % 0 mm 0 W/m2
06:40 1.7 °C 1.1 °C 1010.4 hPa ESE 8 km/h 11.3 km/h 96 % 0 mm 0 W/m2
06:41 1.7 °C 1.1 °C 1010.4 hPa ESE 6.4 km/h 11.3 km/h 96 % 0 mm 0 W/m2
06:42 1.7 °C 1.1 °C 1010.4 hPa ESE 6.4 km/h 11.3 km/h 96 % 0 mm 0 W/m2
06:43 1.7 °C 1.1 °C 1010.4 hPa ESE 6.4 km/h 11.3 km/h 96 % 0 mm 0 W/m2
06:44 1.7 °C 1.1 °C 1010.4 hPa ESE 9.7 km/h 16.1 km/h 96 % 0 mm 0 W/m2
06:45 1.7 °C 1.1 °C 1010.4 hPa ESE 9.7 km/h 16.1 km/h 96 % 0 mm 0 W/m2
06:48 1.7 °C 1.1 °C 1010 hPa SE 9.7 km/h 12.9 km/h 96 % 0 mm 0 W/m2
06:50 1.7 °C 1.1 °C 1010 hPa SE 11.3 km/h 16.1 km/h 96 % 0 mm 0 W/m2
06:51 1.7 °C 1.1 °C 1010 hPa SE 11.3 km/h 16.1 km/h 96 % 0 mm 0 W/m2
06:53 1.7 °C 1.1 °C 1010 hPa SE 8 km/h 12.9 km/h 96 % 0 mm 0 W/m2
06:54 1.7 °C 1.1 °C 1010 hPa SE 8 km/h 12.9 km/h 96 % 0 mm 0 W/m2
06:55 1.7 °C 1.1 °C 1010 hPa SE 9.7 km/h 16.1 km/h 96 % 0 mm 0 W/m2
06:56 1.7 °C 1.1 °C 1010 hPa SE 9.7 km/h 16.1 km/h 96 % 0 mm 0 W/m2
06:57 1.7 °C 1.1 °C 1010 hPa SE 8 km/h 16.1 km/h 96 % 0 mm 0 W/m2
06:58 1.7 °C 1.1 °C 1010 hPa ESE 8 km/h 17.7 km/h 96 % 0 mm 0 W/m2
06:59 1.7 °C 1.1 °C 1010 hPa ESE 9.7 km/h 17.7 km/h 96 % 0 mm 0 W/m2
07:00 1.7 °C 1.1 °C 1010 hPa SE 8 km/h 17.7 km/h 96 % 0 mm 0 W/m2
07:01 1.7 °C 1.1 °C 1010 hPa SE 8 km/h 12.9 km/h 96 % 0 mm 0 W/m2
07:02 1.7 °C 1.1 °C 1010 hPa ESE 4.8 km/h 8 km/h 96 % 0 mm 0 W/m2
07:03 1.7 °C 1.1 °C 1010 hPa ESE 4.8 km/h 9.7 km/h 96 % 0 mm 0 W/m2
07:04 1.8 °C 1.2 °C 1010 hPa ESE 4.8 km/h 9.7 km/h 96 % 0 mm 0 W/m2
07:06 1.8 °C 1.2 °C 1010 hPa SE 4.8 km/h 8 km/h 96 % 0 mm 0 W/m2
07:07 1.8 °C 1.2 °C 1010 hPa SE 3.2 km/h 6.4 km/h 96 % 0 mm 0 W/m2
07:08 1.8 °C 1.2 °C 1010 hPa ESE 4.8 km/h 11.3 km/h 96 % 0 mm 0 W/m2
07:09 1.7 °C 1.1 °C 1010 hPa ESE 9.7 km/h 12.9 km/h 96 % 0 mm 0 W/m2
07:12 1.7 °C 1.1 °C 1010 hPa ESE 8 km/h 12.9 km/h 96 % 0 mm 0 W/m2
07:13 1.8 °C 1.2 °C 1010 hPa ESE 9.7 km/h 12.9 km/h 96 % 0 mm 0 W/m2
07:18 1.8 °C 1.2 °C 1010 hPa SE 8 km/h 12.9 km/h 96 % 0 mm 0 W/m2
07:20 1.8 °C 1.2 °C 1010 hPa ESE 9.7 km/h 12.9 km/h 96 % 0 mm 0 W/m2
07:21 1.8 °C 1.2 °C 1010 hPa ESE 8 km/h 12.9 km/h 96 % 0 mm 0 W/m2
07:22 1.8 °C 1.2 °C 1010 hPa ESE 9.7 km/h 14.5 km/h 96 % 0 mm 0 W/m2
07:23 1.8 °C 1.2 °C 1010 hPa ESE 9.7 km/h 14.5 km/h 96 % 0 mm 0 W/m2
07:25 1.8 °C 1.2 °C 1010 hPa ESE 8 km/h 11.3 km/h 96 % 0 mm 0 W/m2
07:26 1.8 °C 1.2 °C 1009.7 hPa ESE 8 km/h 11.3 km/h 96 % 0 mm 0 W/m2
07:28 1.8 °C 1.2 °C 1009.7 hPa ESE 6.4 km/h 11.3 km/h 96 % 0 mm 0 W/m2
07:29 1.8 °C 1.2 °C 1009.7 hPa ESE 6.4 km/h 9.7 km/h 96 % 0 mm 0 W/m2
07:31 1.8 °C 1.2 °C 1009.7 hPa SE 6.4 km/h 8 km/h 96 % 0 mm 0 W/m2
07:32 1.8 °C 1.2 °C 1009.7 hPa SE 6.4 km/h 8 km/h 96 % 0 mm 0 W/m2
07:35 1.8 °C 1.2 °C 1009.7 hPa SE 8 km/h 12.9 km/h 96 % 0 mm 0 W/m2
07:36 1.8 °C 1.2 °C 1009.7 hPa SE 8 km/h 9.7 km/h 96 % 0 mm 0 W/m2
07:37 1.8 °C 1.2 °C 1009.7 hPa SE 6.4 km/h 9.7 km/h 96 % 0 mm 0 W/m2
07:38 1.8 °C 1.2 °C 1009.7 hPa ESE 4.8 km/h 9.7 km/h 96 % 0 mm 0 W/m2
07:39 1.8 °C 1.2 °C 1009.7 hPa ESE 4.8 km/h 11.3 km/h 96 % 0 mm 0 W/m2
07:41 1.8 °C 1.2 °C 1009.7 hPa SE 6.4 km/h 11.3 km/h 96 % 0 mm 0 W/m2
07:42 1.8 °C 1.2 °C 1009.7 hPa SE 8 km/h 11.3 km/h 96 % 0 mm 0 W/m2
07:44 1.8 °C 1.2 °C 1009.7 hPa ESE 8 km/h 12.9 km/h 96 % 0 mm 0 W/m2
07:45 1.8 °C 1.2 °C 1009.7 hPa ESE 8 km/h 12.9 km/h 96 % 0 mm 0 W/m2
07:52 1.8 °C 1.2 °C 1009.4 hPa SE 6.4 km/h 12.9 km/h 96 % 0 mm 0 W/m2
07:53 1.8 °C 1.2 °C 1009.4 hPa SE 6.4 km/h 11.3 km/h 96 % 0 mm 0 W/m2
07:55 1.8 °C 1.2 °C 1009.7 hPa SE 8 km/h 12.9 km/h 96 % 0 mm 0 W/m2
07:56 1.8 °C 1.2 °C 1009.4 hPa SE 8 km/h 12.9 km/h 96 % 0 mm 0 W/m2
07:57 1.8 °C 1.2 °C 1009.4 hPa SE 8 km/h 12.9 km/h 96 % 0 mm 0 W/m2
07:58 1.8 °C 1.2 °C 1009.4 hPa SE 8 km/h 14.5 km/h 96 % 0 mm 0 W/m2
07:59 1.8 °C 1.2 °C 1009.4 hPa ESE 8 km/h 14.5 km/h 96 % 0 mm 0 W/m2
08:00 1.9 °C 1.3 °C 1009.4 hPa ESE 8 km/h 14.5 km/h 96 % 0 mm 0 W/m2
08:02 1.8 °C 1.2 °C 1009.4 hPa SE 8 km/h 14.5 km/h 96 % 0 mm 0 W/m2
08:05 1.9 °C 1.3 °C 1009.4 hPa SE 6.4 km/h 12.9 km/h 96 % 0 mm 0 W/m2
08:06 1.9 °C 1.3 °C 1009.4 hPa SE 4.8 km/h 12.9 km/h 96 % 0 mm 0 W/m2
08:07 1.9 °C 1.3 °C 1009.7 hPa SE 4.8 km/h 9.7 km/h 96 % 0 mm 0 W/m2
08:08 1.9 °C 1.3 °C 1009.4 hPa SE 6.4 km/h 11.3 km/h 96 % 0 mm 0 W/m2
08:11 1.9 °C 1.3 °C 1009.4 hPa ESE 9.7 km/h 12.9 km/h 96 % 0 mm 0 W/m2
08:14 1.9 °C 1.3 °C 1009.4 hPa ESE 6.4 km/h 12.9 km/h 96 % 0 mm 0 W/m2
08:15 1.9 °C 1.3 °C 1009.4 hPa ESE 4.8 km/h 8 km/h 96 % 0 mm 0 W/m2
08:17 1.9 °C 1.3 °C 1009.4 hPa SE 4.8 km/h 9.7 km/h 96 % 0 mm 0 W/m2
08:18 1.9 °C 1.3 °C 1009.4 hPa ESE 6.4 km/h 9.7 km/h 96 % 0 mm 0 W/m2
08:21 1.9 °C 1.3 °C 1009.4 hPa SE 9.7 km/h 12.9 km/h 96 % 0 mm 0 W/m2
08:23 1.9 °C 1.3 °C 1009.4 hPa ESE 9.7 km/h 14.5 km/h 96 % 0 mm 0 W/m2
08:25 1.9 °C 1.3 °C 1009.4 hPa SE 8 km/h 14.5 km/h 96 % 0 mm 0 W/m2
08:26 1.9 °C 1.3 °C 1009.4 hPa ESE 9.7 km/h 17.7 km/h 96 % 0 mm 0 W/m2
08:28 1.9 °C 1.3 °C 1009.4 hPa ESE 11.3 km/h 16.1 km/h 96 % 0 mm 0 W/m2
08:30 1.9 °C 1.3 °C 1009.4 hPa SE 8 km/h 11.3 km/h 96 % 0 mm 0 W/m2
08:31 1.9 °C 1.3 °C 1009.4 hPa SE 8 km/h 11.3 km/h 96 % 0 mm 0 W/m2
08:32 1.9 °C 1.3 °C 1009.4 hPa SE 6.4 km/h 11.3 km/h 96 % 0 mm 0 W/m2
08:33 1.9 °C 1.3 °C 1009.4 hPa ESE 6.4 km/h 12.9 km/h 96 % 0 mm 0 W/m2
08:34 1.9 °C 1.3 °C 1009.4 hPa ESE 8 km/h 12.9 km/h 96 % 0 mm 0 W/m2
08:35 1.9 °C 1.3 °C 1009.4 hPa ESE 9.7 km/h 12.9 km/h 96 % 0 mm 0 W/m2
08:36 2 °C 1.4 °C 1009.4 hPa SE 9.7 km/h 12.9 km/h 96 % 0 mm 0 W/m2
08:38 2 °C 1.4 °C 1009.4 hPa SE 6.4 km/h 11.3 km/h 96 % 0 mm 0 W/m2
08:40 2 °C 1.4 °C 1009.4 hPa ESE 4.8 km/h 8 km/h 96 % 0 mm 0 W/m2
08:41 2 °C 1.4 °C 1009.4 hPa SE 6.4 km/h 11.3 km/h 96 % 0 mm 0 W/m2
08:42 2 °C 1.4 °C 1009.4 hPa SE 6.4 km/h 11.3 km/h 96 % 0 mm 0 W/m2
08:43 2 °C 1.4 °C 1009 hPa SE 6.4 km/h 11.3 km/h 96 % 0 mm 0 W/m2
08:44 2 °C 1.4 °C 1009.4 hPa SE 6.4 km/h 11.3 km/h 96 % 0 mm 0 W/m2
08:47 2 °C 1.4 °C 1009 hPa ESE 8 km/h 17.7 km/h 96 % 0 mm 0 W/m2
08:48 2 °C 1.4 °C 1009 hPa SE 11.3 km/h 20.9 km/h 96 % 0 mm 0 W/m2
08:52 2 °C 1.4 °C 1009 hPa SE 9.7 km/h 19.3 km/h 96 % 0 mm 0 W/m2
08:53 2 °C 1.4 °C 1009 hPa SE 8 km/h 14.5 km/h 96 % 0 mm 0 W/m2
08:54 2 °C 1.4 °C 1009 hPa SE 8 km/h 14.5 km/h 96 % 0 mm 0 W/m2
08:55 2 °C 1.4 °C 1009 hPa SE 8 km/h 14.5 km/h 96 % 0 mm 0 W/m2
08:56 2 °C 1.4 °C 1009 hPa SE 6.4 km/h 9.7 km/h 96 % 0 mm 0 W/m2
08:57 2 °C 1.4 °C 1009 hPa SE 8 km/h 11.3 km/h 96 % 0 mm 0 W/m2
09:00 2 °C 1.4 °C 1009 hPa ESE 6.4 km/h 9.7 km/h 96 % 0 mm 0 W/m2
09:04 2 °C 1.4 °C 1008.7 hPa ESE 6.4 km/h 12.9 km/h 96 % 0 mm 0 W/m2
09:05 2 °C 1.4 °C 1008.7 hPa ESE 6.4 km/h 12.9 km/h 96 % 0 mm 0 W/m2
09:06 2 °C 1.4 °C 1008.7 hPa ESE 8 km/h 12.9 km/h 96 % 0 mm 0 W/m2
09:08 2 °C 1.4 °C 1008.7 hPa ESE 8 km/h 12.9 km/h 96 % 0 mm 0 W/m2
09:10 2 °C 1.4 °C 1008.7 hPa SE 6.4 km/h 12.9 km/h 96 % 0 mm 0 W/m2
09:12 2 °C 1.4 °C 1008.7 hPa SE 6.4 km/h 9.7 km/h 96 % 0 mm 0 W/m2
09:14 2.1 °C 1.6 °C 1008.7 hPa SE 6.4 km/h 9.7 km/h 96 % 0 mm 0 W/m2
09:15 2.1 °C 1.6 °C 1008.7 hPa SE 6.4 km/h 12.9 km/h 96 % 0 mm 0 W/m2
09:16 2.1 °C 1.6 °C 1008.7 hPa SE 8 km/h 12.9 km/h 96 % 0 mm 0 W/m2
09:18 2.1 °C 1.6 °C 1008.7 hPa SE 8 km/h 11.3 km/h 96 % 0 mm 5 W/m2
09:19 2.1 °C 1.6 °C 1008.4 hPa ESE 8 km/h 12.9 km/h 96 % 0 mm 5 W/m2
09:20 2.1 °C 1.6 °C 1008.4 hPa ESE 9.7 km/h 16.1 km/h 96 % 0 mm 5 W/m2
09:21 2.1 °C 1.6 °C 1008.7 hPa SE 11.3 km/h 16.1 km/h 96 % 0 mm 5 W/m2
09:22 2.1 °C 1.6 °C 1008.4 hPa SE 11.3 km/h 16.1 km/h 96 % 0 mm 5 W/m2
09:23 2.1 °C 1.6 °C 1008.4 hPa SE 11.3 km/h 16.1 km/h 96 % 0 mm 5 W/m2
09:24 2.1 °C 1.6 °C 1008.4 hPa SE 11.3 km/h 14.5 km/h 96 % 0 mm 5 W/m2
09:26 2.1 °C 1.6 °C 1008.4 hPa SE 11.3 km/h 16.1 km/h 96 % 0 mm 5 W/m2
09:27 2.1 °C 1.6 °C 1008.4 hPa SE 11.3 km/h 16.1 km/h 96 % 0 mm 7 W/m2
09:30 2.1 °C 1.6 °C 1008.4 hPa SE 9.7 km/h 16.1 km/h 96 % 0 mm 7 W/m2
09:32 2.1 °C 1.6 °C 1008.4 hPa SE 8 km/h 12.9 km/h 96 % 0 mm 7 W/m2
09:33 2.1 °C 1.6 °C 1008.4 hPa SE 9.7 km/h 12.9 km/h 96 % 0 mm 7 W/m2
09:34 2.1 °C 1.6 °C 1008.4 hPa SE 9.7 km/h 12.9 km/h 96 % 0 mm 9 W/m2
09:38 2.1 °C 1.6 °C 1008.4 hPa SE 11.3 km/h 17.7 km/h 96 % 0 mm 9 W/m2
09:43 2.1 °C 1.6 °C 1008.4 hPa SE 12.9 km/h 19.3 km/h 96 % 0 mm 9 W/m2
09:46 2.1 °C 1.6 °C 1008.4 hPa SE 11.3 km/h 19.3 km/h 96 % 0 mm 9 W/m2
09:47 2.1 °C 1.6 °C 1008.4 hPa SE 12.9 km/h 19.3 km/h 96 % 0 mm 9 W/m2
09:48 2.1 °C 1.6 °C 1008.4 hPa SE 11.3 km/h 17.7 km/h 96 % 0 mm 9 W/m2
09:50 2.1 °C 1.6 °C 1008 hPa SE 11.3 km/h 16.1 km/h 96 % 0 mm 9 W/m2
09:52 2.1 °C 1.6 °C 1008 hPa SE 11.3 km/h 14.5 km/h 96 % 0 mm 11 W/m2
09:54 2.1 °C 1.6 °C 1008 hPa SE 9.7 km/h 17.7 km/h 96 % 0 mm 11 W/m2
09:58 2.1 °C 1.6 °C 1008 hPa SE 8 km/h 12.9 km/h 96 % 0 mm 7 W/m2
09:59 2.1 °C 1.6 °C 1008 hPa SE 8 km/h 12.9 km/h 96 % 0 mm 7 W/m2
10:00 2.1 °C 1.6 °C 1008 hPa SE 6.4 km/h 12.9 km/h 96 % 0 mm 7 W/m2
10:02 2.1 °C 1.6 °C 1007.7 hPa SE 6.4 km/h 9.7 km/h 96 % 0 mm 11 W/m2
10:03 2.1 °C 1.6 °C 1007.7 hPa SE 6.4 km/h 11.3 km/h 96 % 0 mm 11 W/m2
10:04 2.1 °C 1.6 °C 1007.7 hPa SE 8 km/h 11.3 km/h 96 % 0 mm 11 W/m2
10:06 2.1 °C 1.6 °C 1007.7 hPa SE 8 km/h 11.3 km/h 96 % 0 mm 11 W/m2
10:08 2.1 °C 1.6 °C 1007.7 hPa SE 9.7 km/h 16.1 km/h 96 % 0 mm 12 W/m2
10:09 2.1 °C 1.6 °C 1007.7 hPa SE 9.7 km/h 16.1 km/h 96 % 0 mm 12 W/m2
10:11 2.1 °C 1.6 °C 1007.7 hPa SE 9.7 km/h 16.1 km/h 96 % 0 mm 14 W/m2
10:12 2.1 °C 1.6 °C 1007.7 hPa SE 11.3 km/h 17.7 km/h 96 % 0 mm 14 W/m2
10:13 2.1 °C 1.6 °C 1007.7 hPa SE 12.9 km/h 17.7 km/h 96 % 0 mm 14 W/m2
10:14 2.1 °C 1.6 °C 1007.7 hPa SE 12.9 km/h 17.7 km/h 96 % 0 mm 14 W/m2
10:16 2.1 °C 1.6 °C 1007.7 hPa SE 11.3 km/h 16.1 km/h 96 % 0 mm 16 W/m2
10:18 2.1 °C 1.6 °C 1007.7 hPa SE 12.9 km/h 16.1 km/h 96 % 0 mm 14 W/m2
10:19 2.1 °C 1.6 °C 1007.7 hPa SE 11.3 km/h 16.1 km/h 96 % 0 mm 14 W/m2
10:20 2.1 °C 1.6 °C 1007.7 hPa SSE 9.7 km/h 12.9 km/h 96 % 0 mm 16 W/m2
10:22 2.1 °C 1.6 °C 1007.7 hPa SE 9.7 km/h 12.9 km/h 96 % 0 mm 16 W/m2
10:23 2.1 °C 1.6 °C 1007.7 hPa SE 9.7 km/h 14.5 km/h 96 % 0 mm 16 W/m2
10:24 2.1 °C 1.6 °C 1007.7 hPa SE 9.7 km/h 14.5 km/h 96 % 0 mm 16 W/m2
10:25 2.1 °C 1.6 °C 1007.3 hPa SE 9.7 km/h 16.1 km/h 96 % 0 mm 16 W/m2
10:26 2.1 °C 1.6 °C 1007.3 hPa SE 9.7 km/h 16.1 km/h 96 % 0 mm 18 W/m2
10:28 2.1 °C 1.6 °C 1007.3 hPa SE 11.3 km/h 22.5 km/h 96 % 0 mm 18 W/m2
10:29 2.1 °C 1.6 °C 1007.3 hPa SE 11.3 km/h 22.5 km/h 96 % 0 mm 18 W/m2
10:30 2.1 °C 1.6 °C 1007.3 hPa SE 12.9 km/h 22.5 km/h 96 % 0 mm 19 W/m2
10:31 2.1 °C 1.6 °C 1007.3 hPa SE 11.3 km/h 22.5 km/h 96 % 0 mm 19 W/m2
10:32 2.1 °C 1.6 °C 1007.3 hPa SE 9.7 km/h 16.1 km/h 96 % 0 mm 19 W/m2
10:33 2.1 °C 1.6 °C 1007.3 hPa SE 9.7 km/h 16.1 km/h 96 % 0 mm 19 W/m2
10:35 2.1 °C 1.6 °C 1007.3 hPa SE 11.3 km/h 19.3 km/h 96 % 0 mm 18 W/m2
10:36 2.1 °C 1.6 °C 1007.3 hPa SE 11.3 km/h 14.5 km/h 96 % 0 mm 16 W/m2
10:37 2.1 °C 1.6 °C 1007.3 hPa SE 11.3 km/h 14.5 km/h 96 % 0 mm 16 W/m2
10:38 2.1 °C 1.6 °C 1007.3 hPa SE 9.7 km/h 14.5 km/h 96 % 0 mm 16 W/m2
10:39 2.1 °C 1.6 °C 1007.3 hPa SE 9.7 km/h 14.5 km/h 96 % 0 mm 16 W/m2
10:40 2.1 °C 1.6 °C 1007.3 hPa ESE 11.3 km/h 16.1 km/h 96 % 0 mm 21 W/m2
10:41 2.2 °C 1.6 °C 1007.3 hPa ESE 11.3 km/h 16.1 km/h 96 % 0 mm 25 W/m2
10:43 2.2 °C 1.6 °C 1007.3 hPa SE 9.7 km/h 17.7 km/h 96 % 0 mm 19 W/m2
10:44 2.2 °C 1.6 °C 1007.3 hPa SE 9.7 km/h 16.1 km/h 96 % 0 mm 19 W/m2
10:45 2.2 °C 1.6 °C 1007.3 hPa SE 8 km/h 14.5 km/h 96 % 0 mm 21 W/m2
10:46 2.2 °C 1.6 °C 1007.3 hPa SE 8 km/h 14.5 km/h 96 % 0 mm 18 W/m2
10:47 2.2 °C 1.6 °C 1007.3 hPa SE 6.4 km/h 9.7 km/h 96 % 0 mm 18 W/m2
10:49 2.2 °C 1.6 °C 1007.3 hPa SE 8 km/h 14.5 km/h 96 % 0 mm 18 W/m2
10:50 2.2 °C 1.6 °C 1007.3 hPa SE 8 km/h 11.3 km/h 96 % 0 mm 19 W/m2
10:52 2.2 °C 1.6 °C 1007 hPa SE 9.7 km/h 17.7 km/h 96 % 0 mm 23 W/m2
10:54 2.2 °C 1.6 °C 1007 hPa SE 14.5 km/h 19.3 km/h 96 % 0 mm 19 W/m2
10:56 2.2 °C 1.6 °C 1007 hPa SE 11.3 km/h 16.1 km/h 96 % 0 mm 21 W/m2
10:57 2.2 °C 1.6 °C 1007 hPa SE 12.9 km/h 16.1 km/h 96 % 0 mm 21 W/m2
10:58 2.2 °C 1.6 °C 1007 hPa SE 11.3 km/h 16.1 km/h 96 % 0 mm 23 W/m2
10:59 2.2 °C 1.6 °C 1007 hPa SE 9.7 km/h 16.1 km/h 96 % 0 mm 23 W/m2
11:00 2.2 °C 1.6 °C 1007 hPa SE 8 km/h 12.9 km/h 96 % 0 mm 26 W/m2
11:01 2.2 °C 1.6 °C 1007 hPa SE 8 km/h 11.3 km/h 96 % 0 mm 26 W/m2
11:02 2.2 °C 1.6 °C 1007 hPa SE 6.4 km/h 11.3 km/h 96 % 0 mm 30 W/m2
11:03 2.2 °C 1.6 °C 1007 hPa SE 8 km/h 14.5 km/h 96 % 0 mm 28 W/m2
11:04 2.2 °C 1.6 °C 1006.7 hPa SE 9.7 km/h 14.5 km/h 96 % 0 mm 28 W/m2
11:05 2.2 °C 1.6 °C 1007 hPa SE 9.7 km/h 14.5 km/h 96 % 0 mm 26 W/m2
11:06 2.2 °C 1.6 °C 1007 hPa SE 8 km/h 11.3 km/h 96 % 0 mm 25 W/m2
11:07 2.2 °C 1.6 °C 1007 hPa SE 8 km/h 11.3 km/h 96 % 0 mm 25 W/m2
11:08 2.2 °C 1.6 °C 1007 hPa SE 9.7 km/h 19.3 km/h 96 % 0 mm 23 W/m2
11:09 2.2 °C 1.6 °C 1007 hPa SE 9.7 km/h 19.3 km/h 96 % 0 mm 23 W/m2
11:10 2.2 °C 1.6 °C 1007 hPa SE 11.3 km/h 19.3 km/h 96 % 0 mm 23 W/m2
11:11 2.2 °C 1.6 °C 1006.7 hPa SE 11.3 km/h 19.3 km/h 96 % 0 mm 25 W/m2
11:12 2.2 °C 1.6 °C 1006.7 hPa SE 9.7 km/h 14.5 km/h 96 % 0 mm 26 W/m2
11:14 2.2 °C 1.6 °C 1006.7 hPa SE 9.7 km/h 16.1 km/h 96 % 0 mm 28 W/m2
11:15 2.2 °C 1.6 °C 1006.7 hPa SE 9.7 km/h 16.1 km/h 96 % 0 mm 26 W/m2
11:16 2.2 °C 1.6 °C 1006.7 hPa SE 9.7 km/h 14.5 km/h 96 % 0 mm 26 W/m2
11:19 2.3 °C 1.7 °C 1006.7 hPa ESE 8 km/h 11.3 km/h 96 % 0 mm 23 W/m2
11:20 2.3 °C 1.7 °C 1006.7 hPa ESE 6.4 km/h 12.9 km/h 96 % 0 mm 23 W/m2
11:21 2.3 °C 1.7 °C 1006.7 hPa SE 6.4 km/h 14.5 km/h 96 % 0 mm 23 W/m2
11:24 2.3 °C 1.7 °C 1006.7 hPa SE 11.3 km/h 16.1 km/h 96 % 0 mm 21 W/m2
11:25 2.3 °C 1.7 °C 1006.7 hPa SE 11.3 km/h 16.1 km/h 96 % 0 mm 19 W/m2
11:26 2.3 °C 1.7 °C 1006.3 hPa ESE 8 km/h 12.9 km/h 96 % 0 mm 16 W/m2
11:27 2.3 °C 1.7 °C 1006.3 hPa ESE 6.4 km/h 11.3 km/h 96 % 0 mm 16 W/m2
11:28 2.3 °C 1.7 °C 1006.3 hPa ESE 6.4 km/h 11.3 km/h 96 % 0 mm 16 W/m2
11:29 2.3 °C 1.7 °C 1006.3 hPa SE 6.4 km/h 12.9 km/h 96 % 0 mm 11 W/m2
11:30 2.3 °C 1.7 °C 1006.3 hPa SE 6.4 km/h 12.9 km/h 96 % 0 mm 12 W/m2
11:31 2.3 °C 1.7 °C 1006.7 hPa SE 6.4 km/h 12.9 km/h 96 % 0 mm 12 W/m2
11:32 2.3 °C 1.7 °C 1006.7 hPa SE 4.8 km/h 12.9 km/h 96 % 0 mm 12 W/m2
11:36 2.3 °C 1.7 °C 1006.7 hPa SE 6.4 km/h 9.7 km/h 96 % 0 mm 12 W/m2
11:38 2.3 °C 1.7 °C 1006.7 hPa SE 8 km/h 11.3 km/h 96 % 0 mm 21 W/m2
11:41 2.3 °C 1.7 °C 1006.3 hPa ESE 8 km/h 11.3 km/h 96 % 0 mm 26 W/m2
11:44 2.3 °C 1.7 °C 1006.3 hPa SE 9.7 km/h 16.1 km/h 96 % 0 mm 28 W/m2
11:45 2.3 °C 1.7 °C 1006.3 hPa SE 11.3 km/h 17.7 km/h 96 % 0 mm 28 W/m2
11:46 2.3 °C 1.7 °C 1006.3 hPa SE 11.3 km/h 17.7 km/h 96 % 0 mm 28 W/m2
11:47 2.3 °C 1.7 °C 1006.3 hPa SE 11.3 km/h 17.7 km/h 96 % 0 mm 28 W/m2
11:48 2.3 °C 1.7 °C 1006.3 hPa SE 11.3 km/h 17.7 km/h 96 % 0 mm 28 W/m2
11:49 2.3 °C 1.7 °C 1006.3 hPa SE 11.3 km/h 16.1 km/h 96 % 0 mm 28 W/m2
11:50 2.3 °C 1.7 °C 1006.3 hPa SE 9.7 km/h 16.1 km/h 96 % 0 mm 23 W/m2
11:51 2.3 °C 1.7 °C 1006.3 hPa SSE 9.7 km/h 16.1 km/h 96 % 0 mm 23 W/m2
11:52 2.3 °C 1.7 °C 1006.3 hPa SSE 9.7 km/h 14.5 km/h 96 % 0 mm 23 W/m2
11:53 2.3 °C 1.7 °C 1006.3 hPa SSE 9.7 km/h 12.9 km/h 96 % 0 mm 23 W/m2
11:54 2.3 °C 1.7 °C 1006.3 hPa SSE 8 km/h 12.9 km/h 96 % 0 mm 21 W/m2
11:55 2.3 °C 1.7 °C 1006.3 hPa SSE 9.7 km/h 16.1 km/h 96 % 0 mm 21 W/m2
11:56 2.3 °C 1.7 °C 1006.3 hPa SE 11.3 km/h 16.1 km/h 96 % 0 mm 21 W/m2
11:57 2.3 °C 1.7 °C 1006.3 hPa SE 11.3 km/h 16.1 km/h 96 % 0 mm 19 W/m2
11:58 2.3 °C 1.7 °C 1006.3 hPa SE 9.7 km/h 14.5 km/h 96 % 0 mm 19 W/m2
11:59 2.3 °C 1.7 °C 1006.3 hPa SE 9.7 km/h 14.5 km/h 96 % 0 mm 19 W/m2
12:02 2.3 °C 1.7 °C 1006 hPa SE 9.7 km/h 14.5 km/h 96 % 0 mm 23 W/m2
12:03 2.3 °C 1.7 °C 1006 hPa SE 12.9 km/h 16.1 km/h 96 % 0 mm 23 W/m2
12:04 2.3 °C 1.7 °C 1006 hPa SE 12.9 km/h 16.1 km/h 96 % 0 mm 23 W/m2
12:07 2.3 °C 1.7 °C 1006 hPa SE 12.9 km/h 17.7 km/h 96 % 0 mm 19 W/m2
12:10 2.3 °C 1.7 °C 1006 hPa SE 9.7 km/h 12.9 km/h 96 % 0 mm 19 W/m2
12:12 2.4 °C 1.8 °C 1006 hPa SE 9.7 km/h 12.9 km/h 96 % 0 mm 18 W/m2
12:13 2.4 °C 1.8 °C 1006 hPa SE 8 km/h 11.3 km/h 96 % 0 mm 21 W/m2
12:14 2.4 °C 1.8 °C 1006 hPa SE 9.7 km/h 16.1 km/h 96 % 0 mm 21 W/m2
12:16 2.4 °C 1.8 °C 1006 hPa SE 12.9 km/h 17.7 km/h 96 % 0 mm 23 W/m2
12:17 2.4 °C 1.8 °C 1006 hPa SE 12.9 km/h 17.7 km/h 96 % 0 mm 23 W/m2
12:19 2.4 °C 1.8 °C 1006 hPa SE 8 km/h 12.9 km/h 96 % 0 mm 23 W/m2
12:21 2.4 °C 1.8 °C 1006 hPa SE 9.7 km/h 14.5 km/h 96 % 0 mm 23 W/m2
12:22 2.4 °C 1.8 °C 1006 hPa SE 9.7 km/h 12.9 km/h 96 % 0 mm 21 W/m2
12:24 2.4 °C 1.8 °C 1006 hPa SE 8 km/h 12.9 km/h 96 % 0 mm 19 W/m2
12:25 2.4 °C 1.8 °C 1006 hPa SE 8 km/h 12.9 km/h 96 % 0 mm 21 W/m2
12:29 2.4 °C 1.8 °C 1006 hPa SE 11.3 km/h 17.7 km/h 96 % 0 mm 21 W/m2
12:30 2.4 °C 1.8 °C 1006 hPa SE 11.3 km/h 17.7 km/h 96 % 0 mm 21 W/m2
12:31 2.4 °C 1.8 °C 1006 hPa SE 11.3 km/h 17.7 km/h 96 % 0 mm 19 W/m2
12:32 2.4 °C 1.8 °C 1006 hPa SE 11.3 km/h 19.3 km/h 96 % 0 mm 18 W/m2
12:34 2.4 °C 1.8 °C 1006 hPa SSE 9.7 km/h 14.5 km/h 96 % 0 mm 18 W/m2
12:38 2.4 °C 1.8 °C 1005.6 hPa SE 8 km/h 11.3 km/h 96 % 0 mm 18 W/m2
12:39 2.4 °C 1.8 °C 1005.6 hPa SE 8 km/h 12.9 km/h 96 % 0 mm 18 W/m2
12:40 2.4 °C 1.8 °C 1005.6 hPa SE 11.3 km/h 17.7 km/h 96 % 0 mm 18 W/m2
12:43 2.4 °C 1.8 °C 1005.6 hPa SE 9.7 km/h 12.9 km/h 96 % 0 mm 21 W/m2
12:44 2.4 °C 1.8 °C 1005.3 hPa SE 8 km/h 14.5 km/h 96 % 0 mm 19 W/m2
12:45 2.4 °C 1.8 °C 1005.6 hPa SE 8 km/h 14.5 km/h 96 % 0 mm 19 W/m2
12:46 2.4 °C 1.8 °C 1005.6 hPa SE 9.7 km/h 17.7 km/h 96 % 0 mm 25 W/m2
12:47 2.4 °C 1.8 °C 1005.6 hPa SE 12.9 km/h 19.3 km/h 96 % 0 mm 26 W/m2
12:48 2.4 °C 1.8 °C 1005.3 hPa SE 12.9 km/h 19.3 km/h 96 % 0 mm 23 W/m2
12:50 2.4 °C 1.8 °C 1005.3 hPa SE 11.3 km/h 16.1 km/h 96 % 0 mm 16 W/m2
12:51 2.4 °C 1.8 °C 1005.3 hPa SE 11.3 km/h 16.1 km/h 96 % 0 mm 16 W/m2
12:52 2.4 °C 1.8 °C 1005.3 hPa SE 11.3 km/h 16.1 km/h 96 % 0 mm 16 W/m2
12:54 2.5 °C 1.9 °C 1005.3 hPa SE 9.7 km/h 16.1 km/h 96 % 0 mm 19 W/m2
12:55 2.5 °C 1.9 °C 1005.3 hPa SE 8 km/h 12.9 km/h 96 % 0 mm 21 W/m2
12:57 2.5 °C 1.9 °C 1005.3 hPa SE 8 km/h 14.5 km/h 96 % 0 mm 21 W/m2
12:58 2.5 °C 1.9 °C 1005.3 hPa SE 9.7 km/h 14.5 km/h 96 % 0 mm 21 W/m2
12:59 2.5 °C 1.9 °C 1005.3 hPa SE 8 km/h 14.5 km/h 96 % 0 mm 19 W/m2
13:00 2.5 °C 1.9 °C 1005.3 hPa SE 6.4 km/h 11.3 km/h 96 % 0 mm 18 W/m2
13:01 2.5 °C 1.9 °C 1005.3 hPa SE 8 km/h 14.5 km/h 96 % 0 mm 19 W/m2
13:03 2.5 °C 1.9 °C 1005.3 hPa SE 11.3 km/h 19.3 km/h 96 % 0 mm 18 W/m2
13:04 2.5 °C 1.9 °C 1005.3 hPa SE 11.3 km/h 19.3 km/h 96 % 0 mm 19 W/m2
13:07 2.5 °C 1.9 °C 1005.3 hPa SE 12.9 km/h 20.9 km/h 96 % 0 mm 19 W/m2
13:08 2.5 °C 1.9 °C 1005.3 hPa SE 16.1 km/h 22.5 km/h 96 % 0 mm 21 W/m2
13:09 2.5 °C 1.9 °C 1005.3 hPa SE 17.7 km/h 22.5 km/h 96 % 0 mm 23 W/m2
13:10 2.5 °C 1.9 °C 1005.3 hPa SE 16.1 km/h 22.5 km/h 96 % 0 mm 23 W/m2
13:11 2.5 °C 1.9 °C 1005 hPa SE 12.9 km/h 20.9 km/h 96 % 0 mm 23 W/m2
13:13 2.5 °C 1.9 °C 1005 hPa SE 11.3 km/h 17.7 km/h 96 % 0 mm 19 W/m2
13:14 2.5 °C 1.9 °C 1005 hPa SE 11.3 km/h 19.3 km/h 96 % 0 mm 18 W/m2
13:15 2.5 °C 1.9 °C 1005 hPa SSE 11.3 km/h 19.3 km/h 96 % 0 mm 16 W/m2
13:16 2.6 °C 2 °C 1005 hPa SSE 9.7 km/h 19.3 km/h 96 % 0 mm 16 W/m2
13:17 2.6 °C 2 °C 1005 hPa SE 9.7 km/h 14.5 km/h 96 % 0 mm 14 W/m2
13:18 2.6 °C 2 °C 1005 hPa SE 9.7 km/h 12.9 km/h 96 % 0 mm 14 W/m2
13:19 2.6 °C 2 °C 1005 hPa SE 8 km/h 11.3 km/h 96 % 0 mm 14 W/m2
13:20 2.6 °C 2 °C 1005 hPa SE 8 km/h 14.5 km/h 96 % 0 mm 14 W/m2
13:21 2.6 °C 2 °C 1005 hPa SE 11.3 km/h 14.5 km/h 96 % 0 mm 14 W/m2
13:23 2.6 °C 2 °C 1005 hPa SE 11.3 km/h 14.5 km/h 96 % 0 mm 12 W/m2
13:25 2.6 °C 2 °C 1005 hPa SE 11.3 km/h 19.3 km/h 96 % 0 mm 12 W/m2
13:27 2.6 °C 2 °C 1005 hPa SE 12.9 km/h 17.7 km/h 96 % 0 mm 14 W/m2
13:28 2.6 °C 2 °C 1004.6 hPa SE 11.3 km/h 17.7 km/h 96 % 0 mm 14 W/m2
13:29 2.6 °C 2 °C 1004.6 hPa SE 11.3 km/h 17.7 km/h 96 % 0 mm 14 W/m2
13:31 2.6 °C 2 °C 1004.6 hPa SSE 11.3 km/h 17.7 km/h 96 % 0 mm 16 W/m2
13:32 2.6 °C 2 °C 1004.6 hPa SSE 12.9 km/h 17.7 km/h 96 % 0 mm 16 W/m2
13:33 2.6 °C 2 °C 1004.6 hPa SSE 14.5 km/h 22.5 km/h 96 % 0 mm 16 W/m2
13:34 2.6 °C 2 °C 1004.6 hPa SSE 12.9 km/h 22.5 km/h 96 % 0 mm 18 W/m2
13:39 2.6 °C 2 °C 1004.6 hPa SSE 8 km/h 11.3 km/h 96 % 0 mm 16 W/m2
13:40 2.6 °C 2 °C 1004.6 hPa SSE 8 km/h 11.3 km/h 96 % 0 mm 16 W/m2
13:41 2.6 °C 2 °C 1004.6 hPa SSE 6.4 km/h 9.7 km/h 96 % 0 mm 16 W/m2
13:42 2.6 °C 2 °C 1004.6 hPa SSE 4.8 km/h 9.7 km/h 96 % 0 mm 16 W/m2
13:44 2.6 °C 2 °C 1004.6 hPa SE 3.2 km/h 8 km/h 96 % 0 mm 14 W/m2
13:45 2.6 °C 2 °C 1004.6 hPa SSE 4.8 km/h 12.9 km/h 96 % 0 mm 12 W/m2
13:46 2.6 °C 2 °C 1004.6 hPa SSE 9.7 km/h 16.1 km/h 96 % 0 mm 12 W/m2
13:48 2.6 °C 2 °C 1004.6 hPa SSE 9.7 km/h 16.1 km/h 96 % 0 mm 12 W/m2
13:50 2.6 °C 2 °C 1004.6 hPa South 4.8 km/h 12.9 km/h 96 % 0 mm 12 W/m2
13:51 2.6 °C 2 °C 1004.6 hPa South 4.8 km/h 12.9 km/h 96 % 0 mm 12 W/m2
13:52 2.6 °C 2 °C 1004.6 hPa South 3.2 km/h 8 km/h 96 % 0 mm 12 W/m2
13:53 2.6 °C 2 °C 1004.6 hPa South 3.2 km/h 9.7 km/h 96 % 0 mm 12 W/m2
13:54 2.6 °C 2 °C 1004.6 hPa South 4.8 km/h 9.7 km/h 96 % 0 mm 12 W/m2
13:55 2.6 °C 2 °C 1004.6 hPa South 4.8 km/h 9.7 km/h 96 % 0 mm 14 W/m2
13:57 2.6 °C 2 °C 1004.6 hPa South 3.2 km/h 9.7 km/h 96 % 0 mm 12 W/m2
13:59 2.6 °C 2 °C 1004.6 hPa SSE 8 km/h 11.3 km/h 96 % 0 mm 12 W/m2
14:00 2.6 °C 2 °C 1004.6 hPa SSE 8 km/h 11.3 km/h 96 % 0 mm 14 W/m2
14:03 2.6 °C 2 °C 1004.6 hPa South 8 km/h 14.5 km/h 96 % 0 mm 12 W/m2
14:04 2.6 °C 2 °C 1004.6 hPa SSE 8 km/h 16.1 km/h 96 % 0 mm 12 W/m2
14:05 2.6 °C 2 °C 1004.6 hPa SSE 9.7 km/h 16.1 km/h 96 % 0 mm 11 W/m2
14:06 2.7 °C 2.1 °C 1004.6 hPa SSE 9.7 km/h 14.5 km/h 96 % 0 mm 11 W/m2
14:07 2.6 °C 2 °C 1004.6 hPa SSE 9.7 km/h 14.5 km/h 96 % 0 mm 11 W/m2
14:08 2.7 °C 2.1 °C 1004.3 hPa South 9.7 km/h 14.5 km/h 96 % 0 mm 11 W/m2
14:10 2.7 °C 2.1 °C 1004.3 hPa SSE 8 km/h 14.5 km/h 96 % 0 mm 12 W/m2
14:11 2.7 °C 2.1 °C 1004.3 hPa SSE 8 km/h 12.9 km/h 96 % 0 mm 12 W/m2
14:12 2.7 °C 2.1 °C 1004.3 hPa SSE 3.2 km/h 9.7 km/h 96 % 0 mm 12 W/m2
14:13 2.7 °C 2.1 °C 1004.3 hPa SSE 3.2 km/h 11.3 km/h 96 % 0 mm 12 W/m2
14:15 2.6 °C 2 °C 1004.3 hPa SSE 4.8 km/h 11.3 km/h 96 % 0 mm 12 W/m2
14:17 2.7 °C 2.1 °C 1004.3 hPa South 3.2 km/h 8 km/h 96 % 0 mm 16 W/m2
14:18 2.7 °C 2.1 °C 1004.3 hPa SSE 4.8 km/h 12.9 km/h 96 % 0 mm 14 W/m2
14:20 2.7 °C 2.1 °C 1004.3 hPa SE 8 km/h 16.1 km/h 96 % 0 mm 12 W/m2
14:21 2.7 °C 2.1 °C 1004.3 hPa SE 11.3 km/h 16.1 km/h 96 % 0 mm 12 W/m2
14:22 2.7 °C 2.1 °C 1004.3 hPa SE 9.7 km/h 16.1 km/h 96 % 0 mm 14 W/m2
14:23 2.7 °C 2.1 °C 1004.3 hPa SE 8 km/h 14.5 km/h 96 % 0 mm 18 W/m2
14:24 2.7 °C 2.1 °C 1004.3 hPa SSE 6.4 km/h 14.5 km/h 96 % 0 mm 16 W/m2
14:25 2.7 °C 2.1 °C 1004.3 hPa SSE 6.4 km/h 9.7 km/h 96 % 0 mm 14 W/m2
14:26 2.7 °C 2.1 °C 1004.3 hPa SSE 6.4 km/h 9.7 km/h 96 % 0 mm 14 W/m2
14:28 2.7 °C 2.1 °C 1004.3 hPa SSE 6.4 km/h 11.3 km/h 96 % 0 mm 18 W/m2
14:30 2.7 °C 2.1 °C 1003.9 hPa SSE 4.8 km/h 9.7 km/h 96 % 0 mm 18 W/m2
14:31 2.7 °C 2.1 °C 1003.9 hPa SSE 4.8 km/h 9.7 km/h 96 % 0 mm 18 W/m2
14:34 2.7 °C 2.1 °C 1003.9 hPa SE 8 km/h 12.9 km/h 96 % 0 mm 16 W/m2
14:36 2.7 °C 2.1 °C 1003.9 hPa SE 9.7 km/h 12.9 km/h 96 % 0 mm 16 W/m2
14:37 2.7 °C 2.1 °C 1003.9 hPa SE 9.7 km/h 12.9 km/h 96 % 0 mm 16 W/m2
14:38 2.7 °C 2.1 °C 1003.9 hPa SE 9.7 km/h 14.5 km/h 96 % 0 mm 14 W/m2
14:41 2.7 °C 2.1 °C 1003.9 hPa SE 9.7 km/h 12.9 km/h 96 % 0 mm 18 W/m2
14:42 2.7 °C 2.1 °C 1003.9 hPa SE 9.7 km/h 12.9 km/h 96 % 0 mm 18 W/m2
14:43 2.8 °C 2.2 °C 1003.9 hPa SE 8 km/h 12.9 km/h 96 % 0 mm 14 W/m2
14:44 2.8 °C 2.2 °C 1003.9 hPa SSE 6.4 km/h 9.7 km/h 96 % 0 mm 14 W/m2
14:45 2.8 °C 2.2 °C 1003.9 hPa SSE 6.4 km/h 9.7 km/h 96 % 0 mm 14 W/m2
14:46 2.7 °C 2.1 °C 1003.9 hPa SSE 6.4 km/h 9.7 km/h 96 % 0 mm 12 W/m2
14:47 2.8 °C 2.2 °C 1003.9 hPa SSE 6.4 km/h 9.7 km/h 96 % 0 mm 12 W/m2
14:48 2.8 °C 2.2 °C 1003.9 hPa SSE 6.4 km/h 9.7 km/h 96 % 0 mm 11 W/m2
14:49 2.8 °C 2.2 °C 1004.3 hPa SSE 8 km/h 11.3 km/h 96 % 0 mm 9 W/m2
14:50 2.8 °C 2.2 °C 1003.9 hPa SE 8 km/h 11.3 km/h 96 % 0 mm 9 W/m2
14:51 2.8 °C 2.2 °C 1004.3 hPa SE 8 km/h 11.3 km/h 96 % 0 mm 9 W/m2
14:52 2.8 °C 2.2 °C 1004.3 hPa SE 9.7 km/h 12.9 km/h 96 % 0 mm 9 W/m2
14:53 2.8 °C 2.2 °C 1004.3 hPa SE 8 km/h 12.9 km/h 96 % 0 mm 9 W/m2
14:55 2.8 °C 2.2 °C 1003.9 hPa SE 6.4 km/h 11.3 km/h 96 % 0 mm 9 W/m2
14:56 2.8 °C 2.2 °C 1003.9 hPa ESE 6.4 km/h 11.3 km/h 96 % 0 mm 11 W/m2
14:58 2.8 °C 2.2 °C 1003.9 hPa SE 8 km/h 11.3 km/h 96 % 0 mm 9 W/m2
15:01 2.8 °C 2.2 °C 1003.9 hPa SE 8 km/h 14.5 km/h 96 % 0 mm 9 W/m2
15:03 2.8 °C 2.2 °C 1003.9 hPa SE 8 km/h 11.3 km/h 96 % 0 mm 9 W/m2
15:04 2.8 °C 2.2 °C 1003.9 hPa SE 8 km/h 11.3 km/h 96 % 0 mm 9 W/m2
15:06 2.8 °C 2.2 °C 1003.9 hPa SE 9.7 km/h 12.9 km/h 96 % 0 mm 9 W/m2
15:09 2.8 °C 2.2 °C 1003.9 hPa SSE 6.4 km/h 11.3 km/h 96 % 0 mm 7 W/m2
15:12 2.8 °C 2.2 °C 1003.9 hPa SE 9.7 km/h 12.9 km/h 96 % 0 mm 5 W/m2
15:13 2.8 °C 2.2 °C 1003.9 hPa SE 9.7 km/h 12.9 km/h 96 % 0 mm 5 W/m2
15:14 2.8 °C 2.2 °C 1003.9 hPa SE 8 km/h 12.9 km/h 96 % 0 mm 5 W/m2
15:16 2.8 °C 2.2 °C 1003.9 hPa SE 6.4 km/h 11.3 km/h 96 % 0 mm 5 W/m2
15:18 2.8 °C 2.2 °C 1003.9 hPa SE 8 km/h 16.1 km/h 96 % 0 mm 5 W/m2
15:20 2.8 °C 2.2 °C 1003.6 hPa SE 12.9 km/h 16.1 km/h 96 % 0 mm 5 W/m2
15:21 2.8 °C 2.2 °C 1003.6 hPa SE 9.7 km/h 16.1 km/h 96 % 0 mm 5 W/m2
15:22 2.8 °C 2.2 °C 1003.9 hPa SE 9.7 km/h 16.1 km/h 96 % 0 mm 5 W/m2
15:23 2.8 °C 2.2 °C 1003.6 hPa SSE 8 km/h 11.3 km/h 96 % 0 mm 5 W/m2
15:24 2.8 °C 2.2 °C 1003.9 hPa SSE 9.7 km/h 11.3 km/h 96 % 0 mm 5 W/m2
15:25 2.8 °C 2.2 °C 1003.6 hPa SSE 8 km/h 11.3 km/h 96 % 0 mm 5 W/m2
15:28 2.8 °C 2.2 °C 1003.6 hPa SE 6.4 km/h 12.9 km/h 96 % 0 mm 0 W/m2
15:29 2.8 °C 2.2 °C 1003.6 hPa SE 6.4 km/h 12.9 km/h 96 % 0 mm 0 W/m2
15:30 2.8 °C 2.2 °C 1003.6 hPa SE 8 km/h 14.5 km/h 96 % 0 mm 0 W/m2
15:32 2.8 °C 2.2 °C 1003.9 hPa SE 9.7 km/h 16.1 km/h 96 % 0 mm 0 W/m2
15:33 2.8 °C 2.2 °C 1003.9 hPa SE 9.7 km/h 16.1 km/h 96 % 0 mm 0 W/m2
15:34 2.8 °C 2.2 °C 1003.9 hPa SE 9.7 km/h 16.1 km/h 96 % 0 mm 0 W/m2
15:35 2.8 °C 2.2 °C 1003.9 hPa SE 9.7 km/h 12.9 km/h 96 % 0 mm 0 W/m2
15:36 2.8 °C 2.2 °C 1003.9 hPa SE 9.7 km/h 12.9 km/h 96 % 0 mm 0 W/m2
15:37 2.8 °C 2.2 °C 1003.9 hPa SE 9.7 km/h 12.9 km/h 96 % 0 mm 0 W/m2
15:40 2.9 °C 2.3 °C 1003.9 hPa SE 11.3 km/h 14.5 km/h 96 % 0 mm 0 W/m2
15:41 2.8 °C 2.2 °C 1003.9 hPa SE 11.3 km/h 14.5 km/h 96 % 0 mm 0 W/m2
15:42 2.9 °C 2.3 °C 1003.9 hPa SE 11.3 km/h 14.5 km/h 96 % 0 mm 0 W/m2
15:43 2.8 °C 2.2 °C 1003.9 hPa SE 9.7 km/h 14.5 km/h 96 % 0 mm 0 W/m2
15:46 2.9 °C 2.3 °C 1003.6 hPa SE 8 km/h 12.9 km/h 96 % 0 mm 0 W/m2
15:49 2.9 °C 2.3 °C 1003.6 hPa SE 6.4 km/h 9.7 km/h 96 % 0 mm 0 W/m2
15:52 2.9 °C 2.3 °C 1003.6 hPa SE 3.2 km/h 9.7 km/h 96 % 0 mm 0 W/m2
15:53 2.9 °C 2.3 °C 1003.6 hPa ESE 3.2 km/h 9.7 km/h 96 % 0 mm 0 W/m2
15:54 2.9 °C 2.3 °C 1003.6 hPa SE 1.6 km/h 8 km/h 96 % 0 mm 0 W/m2
15:55 2.9 °C 2.3 °C 1003.6 hPa SE 1.6 km/h 6.4 km/h 96 % 0 mm 0 W/m2
15:56 2.9 °C 2.3 °C 1003.6 hPa SE 3.2 km/h 8 km/h 96 % 0 mm 0 W/m2
15:57 2.9 °C 2.3 °C 1003.6 hPa SE 3.2 km/h 8 km/h 96 % 0 mm 0 W/m2
15:58 2.9 °C 2.3 °C 1003.6 hPa SE 3.2 km/h 8 km/h 96 % 0 mm 0 W/m2
15:59 2.9 °C 2.3 °C 1003.6 hPa SE 1.6 km/h 6.4 km/h 96 % 0 mm 0 W/m2
16:00 2.9 °C 2.3 °C 1003.6 hPa SE 1.6 km/h 6.4 km/h 96 % 0 mm 0 W/m2
16:01 2.9 °C 2.3 °C 1003.6 hPa SE 3.2 km/h 9.7 km/h 96 % 0 mm 0 W/m2
16:02 2.9 °C 2.3 °C 1003.6 hPa ESE 6.4 km/h 9.7 km/h 96 % 0 mm 0 W/m2
16:03 2.9 °C 2.3 °C 1003.6 hPa ESE 6.4 km/h 9.7 km/h 96 % 0 mm 0 W/m2
16:04 2.9 °C 2.3 °C 1003.6 hPa ESE 6.4 km/h 9.7 km/h 96 % 0 mm 0 W/m2
16:05 2.9 °C 2.3 °C 1003.3 hPa SE 6.4 km/h 9.7 km/h 96 % 0 mm 0 W/m2
16:08 2.9 °C 2.3 °C 1003.3 hPa SE 3.2 km/h 8 km/h 96 % 0 mm 0 W/m2
16:10 2.9 °C 2.3 °C 1003.6 hPa SE 4.8 km/h 9.7 km/h 96 % 0 mm 0 W/m2
16:11 2.9 °C 2.3 °C 1003.6 hPa SE 4.8 km/h 9.7 km/h 96 % 0 mm 0 W/m2
16:13 2.9 °C 2.3 °C 1003.6 hPa ESE 3.2 km/h 9.7 km/h 96 % 0 mm 0 W/m2
16:14 2.9 °C 2.3 °C 1003.6 hPa ESE 4.8 km/h 11.3 km/h 96 % 0 mm 0 W/m2
16:16 2.9 °C 2.3 °C 1003.6 hPa ESE 4.8 km/h 11.3 km/h 96 % 0 mm 0 W/m2
16:17 2.9 °C 2.3 °C 1003.3 hPa ESE 4.8 km/h 11.3 km/h 96 % 0 mm 0 W/m2
16:18 2.9 °C 2.3 °C 1003.6 hPa ESE 3.2 km/h 8 km/h 96 % 0 mm 0 W/m2
16:19 2.9 °C 2.3 °C 1003.6 hPa ESE 4.8 km/h 8 km/h 96 % 0 mm 0 W/m2
16:20 2.9 °C 2.3 °C 1003.3 hPa ESE 3.2 km/h 8 km/h 96 % 0 mm 0 W/m2
16:21 2.9 °C 2.3 °C 1003.6 hPa ESE 3.2 km/h 8 km/h 96 % 0 mm 0 W/m2
16:22 2.9 °C 2.3 °C 1003.6 hPa ESE 3.2 km/h 8 km/h 96 % 0 mm 0 W/m2
16:23 2.9 °C 2.3 °C 1003.6 hPa ESE 3.2 km/h 8 km/h 96 % 0 mm 0 W/m2
16:25 2.9 °C 2.3 °C 1003.6 hPa ESE 4.8 km/h 8 km/h 96 % 0 mm 0 W/m2
16:26 2.9 °C 2.3 °C 1003.6 hPa ESE 3.2 km/h 8 km/h 96 % 0 mm 0 W/m2
16:29 2.9 °C 2.3 °C 1003.6 hPa ESE 4.8 km/h 8 km/h 96 % 0 mm 0 W/m2
16:30 2.9 °C 2.3 °C 1003.6 hPa ESE 6.4 km/h 9.7 km/h 96 % 0 mm 0 W/m2
16:31 2.9 °C 2.3 °C 1003.6 hPa ESE 6.4 km/h 9.7 km/h 96 % 0 mm 0 W/m2
16:32 2.9 °C 2.3 °C 1003.3 hPa ESE 6.4 km/h 9.7 km/h 96 % 0 mm 0 W/m2
16:33 2.9 °C 2.3 °C 1003.3 hPa ESE 3.2 km/h 9.7 km/h 96 % 0 mm 0 W/m2
16:34 2.9 °C 2.3 °C 1003.3 hPa ESE 4.8 km/h 9.7 km/h 96 % 0 mm 0 W/m2
16:35 2.9 °C 2.3 °C 1003.3 hPa ESE 6.4 km/h 9.7 km/h 96 % 0 mm 0 W/m2
16:38 2.9 °C 2.3 °C 1003.6 hPa ESE 6.4 km/h 9.7 km/h 96 % 0 mm 0 W/m2
16:39 2.9 °C 2.3 °C 1003.3 hPa ESE 4.8 km/h 9.7 km/h 96 % 0 mm 0 W/m2
16:40 2.9 °C 2.3 °C 1003.3 hPa ESE 3.2 km/h 8 km/h 96 % 0 mm 0 W/m2
16:41 2.9 °C 2.3 °C 1003.3 hPa ESE 3.2 km/h 8 km/h 96 % 0 mm 0 W/m2
16:42 3 °C 2.4 °C 1003.3 hPa East 3.2 km/h 6.4 km/h 96 % 0 mm 0 W/m2
16:43 2.9 °C 2.3 °C 1003.3 hPa ENE 1.6 km/h 6.4 km/h 96 % 0 mm 0 W/m2
16:48 3 °C 2.4 °C 1003.3 hPa East 3.2 km/h 8 km/h 96 % 0 mm 0 W/m2
16:49 3 °C 2.4 °C 1003.3 hPa East 3.2 km/h 8 km/h 96 % 0 mm 0 W/m2
16:52 3 °C 2.4 °C 1003.3 hPa ESE 1.6 km/h 8 km/h 96 % 0 mm 0 W/m2
16:54 3 °C 2.4 °C 1003.3 hPa ESE 6.4 km/h 12.9 km/h 96 % 0 mm 0 W/m2
16:55 3 °C 2.4 °C 1003.3 hPa ESE 8 km/h 12.9 km/h 96 % 0 mm 0 W/m2
16:57 3 °C 2.4 °C 1003.3 hPa ESE 8 km/h 12.9 km/h 96 % 0 mm 0 W/m2
16:59 3 °C 2.4 °C 1003.3 hPa ESE 6.4 km/h 9.7 km/h 96 % 0 mm 0 W/m2
17:01 3 °C 2.4 °C 1003.3 hPa ESE 6.4 km/h 9.7 km/h 96 % 0 mm 0 W/m2
17:03 3 °C 2.4 °C 1003.3 hPa ESE 6.4 km/h 9.7 km/h 96 % 0 mm 0 W/m2
17:04 3 °C 2.4 °C 1003.3 hPa ESE 6.4 km/h 9.7 km/h 96 % 0 mm 0 W/m2
17:05 3 °C 2.4 °C 1003.3 hPa ESE 6.4 km/h 9.7 km/h 96 % 0 mm 0 W/m2
17:08 3 °C 2.4 °C 1003.3 hPa SSE 1.6 km/h 4.8 km/h 96 % 0 mm 0 W/m2
17:09 3 °C 2.4 °C 1003.3 hPa Calm   3.2 km/h 96 % 0 mm 0 W/m2
17:10 3 °C 2.4 °C 1003.3 hPa SE 1.6 km/h 4.8 km/h 96 % 0 mm 0 W/m2
17:11 3 °C 2.4 °C 1003.3 hPa SE 4.8 km/h 9.7 km/h 96 % 0 mm 0 W/m2
17:13 3 °C 2.4 °C 1003.3 hPa SE 6.4 km/h 9.7 km/h 96 % 0 mm 0 W/m2
17:14 3 °C 2.4 °C 1003.3 hPa SE 6.4 km/h 9.7 km/h 96 % 0 mm 0 W/m2
17:15 3 °C 2.4 °C 1003.3 hPa ESE 6.4 km/h 9.7 km/h 96 % 0 mm 0 W/m2
17:16 3 °C 2.4 °C 1003.3 hPa SE 6.4 km/h 9.7 km/h 96 % 0 mm 0 W/m2
17:17 3 °C 2.4 °C 1003.3 hPa SE 6.4 km/h 11.3 km/h 96 % 0 mm 0 W/m2
17:18 3 °C 2.4 °C 1003.3 hPa SE 6.4 km/h 11.3 km/h 96 % 0 mm 0 W/m2
17:20 3 °C 2.4 °C 1003.3 hPa SE 6.4 km/h 11.3 km/h 96 % 0 mm 0 W/m2
17:21 3 °C 2.4 °C 1003.3 hPa SE 8 km/h 12.9 km/h 96 % 0 mm 0 W/m2
17:24 3 °C 2.4 °C 1003.3 hPa SE 8 km/h 12.9 km/h 96 % 0 mm 0 W/m2
17:25 3 °C 2.4 °C 1003.3 hPa SE 8 km/h 12.9 km/h 96 % 0 mm 0 W/m2
17:26 3 °C 2.4 °C 1003.3 hPa SE 6.4 km/h 11.3 km/h 96 % 0 mm 0 W/m2
17:30 3 °C 2.4 °C 1003.3 hPa SE 8 km/h 11.3 km/h 96 % 0 mm 0 W/m2
17:43 3.1 °C 2.5 °C 1002.9 hPa SE 8 km/h 11.3 km/h 96 % 0 mm 0 W/m2
17:45 3.1 °C 2.5 °C 1002.9 hPa SE 8 km/h 11.3 km/h 96 % 0 mm 0 W/m2
17:52 3.1 °C 2.5 °C 1002.9 hPa ESE 8 km/h 11.3 km/h 96 % 0 mm 0 W/m2
17:53 3.1 °C 2.5 °C 1002.9 hPa SE 8 km/h 11.3 km/h 96 % 0 mm 0 W/m2
17:59 3.1 °C 2.5 °C 1002.9 hPa SE 8 km/h 11.3 km/h 96 % 0 mm 0 W/m2
18:01 3.1 °C 2.5 °C 1002.9 hPa SE 6.4 km/h 11.3 km/h 96 % 0 mm 0 W/m2
18:02 3.1 °C 2.5 °C 1002.9 hPa SE 6.4 km/h 8 km/h 96 % 0 mm 0 W/m2
18:06 3.1 °C 2.5 °C 1002.9 hPa SE 11.3 km/h 16.1 km/h 96 % 0 mm 0 W/m2
18:07 3.1 °C 2.5 °C 1002.9 hPa SE 11.3 km/h 16.1 km/h 96 % 0 mm 0 W/m2
18:14 3 °C 2.4 °C 1002.6 hPa SE 8 km/h 11.3 km/h 96 % 0 mm 0 W/m2
18:21 3.1 °C 2.5 °C 1002.9 hPa SSE 8 km/h 12.9 km/h 96 % 0 mm 0 W/m2
18:23 3.1 °C 2.5 °C 1002.6 hPa SE 8 km/h 11.3 km/h 96 % 0 mm 0 W/m2
18:24 3.1 °C 2.5 °C 1002.9 hPa SSE 8 km/h 11.3 km/h 96 % 0 mm 0 W/m2
18:25 3.1 °C 2.5 °C 1002.9 hPa SSE 8 km/h 9.7 km/h 96 % 0 mm 0 W/m2
18:26 3.1 °C 2.5 °C 1002.6 hPa SSE 6.4 km/h 9.7 km/h 96 % 0 mm 0 W/m2
18:28 3.1 °C 2.5 °C 1002.6 hPa SSE 4.8 km/h 8 km/h 96 % 0 mm 0 W/m2
18:29 3.1 °C 2.5 °C 1002.9 hPa SSE 3.2 km/h 8 km/h 96 % 0 mm 0 W/m2
18:30 3.1 °C 2.5 °C 1002.9 hPa SSE 3.2 km/h 8 km/h 96 % 0 mm 0 W/m2
18:32 3.1 °C 2.5 °C 1002.6 hPa SSE 6.4 km/h 9.7 km/h 96 % 0 mm 0 W/m2
18:35 3.1 °C 2.5 °C 1002.9 hPa SE 6.4 km/h 11.3 km/h 96 % 0 mm 0 W/m2
18:40 3.1 °C 2.5 °C 1002.9 hPa SE 8 km/h 12.9 km/h 96 % 0 mm 0 W/m2
18:42 3.1 °C 2.5 °C 1002.9 hPa SE 8 km/h 12.9 km/h 96 % 0 mm 0 W/m2
18:43 3.1 °C 2.5 °C 1002.9 hPa SE 9.7 km/h 12.9 km/h 96 % 0 mm 0 W/m2
18:45 3.1 °C 2.5 °C 1002.9 hPa SE 8 km/h 11.3 km/h 96 % 0 mm 0 W/m2
18:47 3.1 °C 2.5 °C 1002.9 hPa SE 8 km/h 12.9 km/h 96 % 0 mm 0 W/m2
18:50 3.1 °C 2.5 °C 1002.9 hPa SE 8 km/h 11.3 km/h 96 % 0 mm 0 W/m2
18:55 3.1 °C 2.5 °C 1002.9 hPa SE 6.4 km/h 11.3 km/h 96 % 0 mm 0 W/m2
18:59 3.1 °C 2.5 °C 1002.6 hPa SE 3.2 km/h 8 km/h 96 % 0 mm 0 W/m2
19:04 3.1 °C 2.5 °C 1002.6 hPa ESE 8 km/h 11.3 km/h 96 % 0 mm 0 W/m2
19:10 3.1 °C 2.5 °C 1002.9 hPa SE 8 km/h 11.3 km/h 96 % 0 mm 0 W/m2
19:16 3.1 °C 2.5 °C 1002.9 hPa SE 8 km/h 14.5 km/h 96 % 0 mm 0 W/m2
19:19 3.1 °C 2.5 °C 1002.9 hPa SE 4.8 km/h 9.7 km/h 96 % 0 mm 0 W/m2
Delerius-Weather
Compliments of Weather Underground - 5 mb

Data updates at regular intervals.